<?xml version="1.0" encoding="UTF-8" standalone="no" ?>
<gpx xmlns="http://www.topografix.com/GPX/1/1" xmlns:xsi="http://www.w3.org/2001/XMLSchema-instance" xsi:schemaLocation="http://www.topografix.com/GPX/1/1 http://www.topografix.com/GPX/1/1/gpx.xsd" version="1.1" creator="VisuGPX - https://www.visugpx.com">
  <metadata>
    <name>Randonnée à Paulhiac (47) du 15 août 2012</name>
    <desc><![CDATA[Randonnée à Paulhiac (47) du 15 août 2012]]></desc>
  </metadata>
  <trk>
    <name><![CDATA[Randonnée à Paulhiac (47) du 15 août 2012_1]]></name>
    <trkseg>
      <trkpt lat="44.58157" lon="0.82888">
        <ele>140</ele>
        <time>2012-08-15T05:35:20Z</time>
      </trkpt>
      <trkpt lat="44.58145" lon="0.82855">
        <ele>145</ele>
        <time>2012-08-15T05:37:06Z</time>
      </trkpt>
      <trkpt lat="44.58139" lon="0.82837">
        <ele>145</ele>
        <time>2012-08-15T05:37:12Z</time>
      </trkpt>
      <trkpt lat="44.58134" lon="0.82821">
        <ele>145</ele>
        <time>2012-08-15T05:37:18Z</time>
      </trkpt>
      <trkpt lat="44.58128" lon="0.82809">
        <ele>145</ele>
        <time>2012-08-15T05:37:24Z</time>
      </trkpt>
      <trkpt lat="44.58119" lon="0.82813">
        <ele>145</ele>
        <time>2012-08-15T05:37:29Z</time>
      </trkpt>
      <trkpt lat="44.5811" lon="0.82823">
        <ele>145</ele>
        <time>2012-08-15T05:37:34Z</time>
      </trkpt>
      <trkpt lat="44.58101" lon="0.82833">
        <ele>145</ele>
        <time>2012-08-15T05:37:39Z</time>
      </trkpt>
      <trkpt lat="44.58087" lon="0.82847">
        <ele>145</ele>
        <time>2012-08-15T05:37:45Z</time>
      </trkpt>
      <trkpt lat="44.5807" lon="0.82862">
        <ele>145</ele>
        <time>2012-08-15T05:37:50Z</time>
      </trkpt>
      <trkpt lat="44.5805" lon="0.8288">
        <ele>145</ele>
        <time>2012-08-15T05:37:56Z</time>
      </trkpt>
      <trkpt lat="44.58033" lon="0.82894">
        <ele>145</ele>
        <time>2012-08-15T05:38:01Z</time>
      </trkpt>
      <trkpt lat="44.5802" lon="0.82884">
        <ele>145</ele>
        <time>2012-08-15T05:38:06Z</time>
      </trkpt>
      <trkpt lat="44.58011" lon="0.82855">
        <ele>145</ele>
        <time>2012-08-15T05:38:11Z</time>
      </trkpt>
      <trkpt lat="44.58002" lon="0.82821">
        <ele>145</ele>
        <time>2012-08-15T05:38:16Z</time>
      </trkpt>
      <trkpt lat="44.57993" lon="0.82771">
        <ele>145</ele>
        <time>2012-08-15T05:38:22Z</time>
      </trkpt>
      <trkpt lat="44.57984" lon="0.82707">
        <ele>145</ele>
        <time>2012-08-15T05:38:28Z</time>
      </trkpt>
      <trkpt lat="44.57978" lon="0.82644">
        <ele>144</ele>
        <time>2012-08-15T05:38:34Z</time>
      </trkpt>
      <trkpt lat="44.57981" lon="0.82591">
        <ele>143</ele>
        <time>2012-08-15T05:38:39Z</time>
      </trkpt>
      <trkpt lat="44.57991" lon="0.82543">
        <ele>142</ele>
        <time>2012-08-15T05:38:44Z</time>
      </trkpt>
      <trkpt lat="44.58002" lon="0.82501">
        <ele>142</ele>
        <time>2012-08-15T05:38:49Z</time>
      </trkpt>
      <trkpt lat="44.58004" lon="0.82473">
        <ele>142</ele>
        <time>2012-08-15T05:38:54Z</time>
      </trkpt>
      <trkpt lat="44.57979" lon="0.82462">
        <ele>141</ele>
        <time>2012-08-15T05:39:00Z</time>
      </trkpt>
      <trkpt lat="44.57952" lon="0.82474">
        <ele>140</ele>
        <time>2012-08-15T05:39:05Z</time>
      </trkpt>
      <trkpt lat="44.57923" lon="0.82495">
        <ele>140</ele>
        <time>2012-08-15T05:39:10Z</time>
      </trkpt>
      <trkpt lat="44.57889" lon="0.82525">
        <ele>140</ele>
        <time>2012-08-15T05:39:15Z</time>
      </trkpt>
      <trkpt lat="44.57851" lon="0.82553">
        <ele>139</ele>
        <time>2012-08-15T05:39:20Z</time>
      </trkpt>
      <trkpt lat="44.57821" lon="0.82582">
        <ele>137</ele>
        <time>2012-08-15T05:39:25Z</time>
      </trkpt>
      <trkpt lat="44.57786" lon="0.82604">
        <ele>134</ele>
        <time>2012-08-15T05:39:31Z</time>
      </trkpt>
      <trkpt lat="44.57753" lon="0.82611">
        <ele>134</ele>
        <time>2012-08-15T05:39:36Z</time>
      </trkpt>
      <trkpt lat="44.57722" lon="0.82603">
        <ele>132</ele>
        <time>2012-08-15T05:39:42Z</time>
      </trkpt>
      <trkpt lat="44.57699" lon="0.8259">
        <ele>129</ele>
        <time>2012-08-15T05:39:47Z</time>
      </trkpt>
      <trkpt lat="44.57683" lon="0.82611">
        <ele>125</ele>
        <time>2012-08-15T05:39:52Z</time>
      </trkpt>
      <trkpt lat="44.57659" lon="0.82649">
        <ele>119</ele>
        <time>2012-08-15T05:39:58Z</time>
      </trkpt>
      <trkpt lat="44.5764" lon="0.82668">
        <ele>117</ele>
        <time>2012-08-15T05:40:03Z</time>
      </trkpt>
      <trkpt lat="44.57613" lon="0.8265">
        <ele>117</ele>
        <time>2012-08-15T05:40:08Z</time>
      </trkpt>
      <trkpt lat="44.57589" lon="0.82615">
        <ele>117</ele>
        <time>2012-08-15T05:40:13Z</time>
      </trkpt>
      <trkpt lat="44.57567" lon="0.82568">
        <ele>113</ele>
        <time>2012-08-15T05:40:18Z</time>
      </trkpt>
      <trkpt lat="44.57547" lon="0.82514">
        <ele>108</ele>
        <time>2012-08-15T05:40:23Z</time>
      </trkpt>
      <trkpt lat="44.57522" lon="0.82506">
        <ele>105</ele>
        <time>2012-08-15T05:40:29Z</time>
      </trkpt>
      <trkpt lat="44.57498" lon="0.82531">
        <ele>106</ele>
        <time>2012-08-15T05:40:35Z</time>
      </trkpt>
      <trkpt lat="44.57487" lon="0.82554">
        <ele>111</ele>
        <time>2012-08-15T05:40:40Z</time>
      </trkpt>
      <trkpt lat="44.57476" lon="0.82569">
        <ele>116</ele>
        <time>2012-08-15T05:40:45Z</time>
      </trkpt>
      <trkpt lat="44.5746" lon="0.82578">
        <ele>121</ele>
        <time>2012-08-15T05:40:50Z</time>
      </trkpt>
      <trkpt lat="44.57443" lon="0.82583">
        <ele>126</ele>
        <time>2012-08-15T05:40:55Z</time>
      </trkpt>
      <trkpt lat="44.57423" lon="0.82595">
        <ele>131</ele>
        <time>2012-08-15T05:41:00Z</time>
      </trkpt>
      <trkpt lat="44.57399" lon="0.82613">
        <ele>136</ele>
        <time>2012-08-15T05:41:06Z</time>
      </trkpt>
      <trkpt lat="44.57377" lon="0.82638">
        <ele>136</ele>
        <time>2012-08-15T05:41:12Z</time>
      </trkpt>
      <trkpt lat="44.57357" lon="0.82661">
        <ele>137</ele>
        <time>2012-08-15T05:41:17Z</time>
      </trkpt>
      <trkpt lat="44.57338" lon="0.82688">
        <ele>138</ele>
        <time>2012-08-15T05:41:22Z</time>
      </trkpt>
      <trkpt lat="44.57328" lon="0.82721">
        <ele>138</ele>
        <time>2012-08-15T05:41:28Z</time>
      </trkpt>
      <trkpt lat="44.57311" lon="0.82745">
        <ele>138</ele>
        <time>2012-08-15T05:41:34Z</time>
      </trkpt>
      <trkpt lat="44.57291" lon="0.82765">
        <ele>134</ele>
        <time>2012-08-15T05:41:40Z</time>
      </trkpt>
      <trkpt lat="44.57272" lon="0.82781">
        <ele>129</ele>
        <time>2012-08-15T05:41:45Z</time>
      </trkpt>
      <trkpt lat="44.57251" lon="0.82801">
        <ele>128</ele>
        <time>2012-08-15T05:41:50Z</time>
      </trkpt>
      <trkpt lat="44.57219" lon="0.82823">
        <ele>128</ele>
        <time>2012-08-15T05:41:56Z</time>
      </trkpt>
      <trkpt lat="44.57204" lon="0.8284">
        <ele>128</ele>
        <time>2012-08-15T05:42:01Z</time>
      </trkpt>
      <trkpt lat="44.57182" lon="0.8286">
        <ele>129</ele>
        <time>2012-08-15T05:42:06Z</time>
      </trkpt>
      <trkpt lat="44.57148" lon="0.8289">
        <ele>129</ele>
        <time>2012-08-15T05:42:12Z</time>
      </trkpt>
      <trkpt lat="44.57121" lon="0.82915">
        <ele>129</ele>
        <time>2012-08-15T05:42:17Z</time>
      </trkpt>
      <trkpt lat="44.57091" lon="0.82941">
        <ele>129</ele>
        <time>2012-08-15T05:42:22Z</time>
      </trkpt>
      <trkpt lat="44.57066" lon="0.82963">
        <ele>130</ele>
        <time>2012-08-15T05:42:27Z</time>
      </trkpt>
      <trkpt lat="44.57043" lon="0.82985">
        <ele>130</ele>
        <time>2012-08-15T05:42:32Z</time>
      </trkpt>
      <trkpt lat="44.57021" lon="0.8301">
        <ele>130</ele>
        <time>2012-08-15T05:42:37Z</time>
      </trkpt>
      <trkpt lat="44.56994" lon="0.83039">
        <ele>131</ele>
        <time>2012-08-15T05:42:42Z</time>
      </trkpt>
      <trkpt lat="44.56967" lon="0.83076">
        <ele>132</ele>
        <time>2012-08-15T05:42:48Z</time>
      </trkpt>
      <trkpt lat="44.56939" lon="0.83101">
        <ele>132</ele>
        <time>2012-08-15T05:42:53Z</time>
      </trkpt>
      <trkpt lat="44.56914" lon="0.83125">
        <ele>132</ele>
        <time>2012-08-15T05:42:58Z</time>
      </trkpt>
      <trkpt lat="44.56876" lon="0.8315">
        <ele>132</ele>
        <time>2012-08-15T05:43:04Z</time>
      </trkpt>
      <trkpt lat="44.56844" lon="0.83164">
        <ele>136</ele>
        <time>2012-08-15T05:43:09Z</time>
      </trkpt>
      <trkpt lat="44.56813" lon="0.83173">
        <ele>138</ele>
        <time>2012-08-15T05:43:14Z</time>
      </trkpt>
      <trkpt lat="44.56784" lon="0.83185">
        <ele>139</ele>
        <time>2012-08-15T05:43:19Z</time>
      </trkpt>
      <trkpt lat="44.56756" lon="0.83196">
        <ele>139</ele>
        <time>2012-08-15T05:43:24Z</time>
      </trkpt>
      <trkpt lat="44.56729" lon="0.83207">
        <ele>140</ele>
        <time>2012-08-15T05:43:29Z</time>
      </trkpt>
      <trkpt lat="44.567" lon="0.83218">
        <ele>141</ele>
        <time>2012-08-15T05:43:34Z</time>
      </trkpt>
      <trkpt lat="44.56671" lon="0.83228">
        <ele>141</ele>
        <time>2012-08-15T05:43:39Z</time>
      </trkpt>
      <trkpt lat="44.56637" lon="0.83232">
        <ele>142</ele>
        <time>2012-08-15T05:43:45Z</time>
      </trkpt>
      <trkpt lat="44.56606" lon="0.83232">
        <ele>142</ele>
        <time>2012-08-15T05:43:50Z</time>
      </trkpt>
      <trkpt lat="44.56576" lon="0.83231">
        <ele>142</ele>
        <time>2012-08-15T05:43:55Z</time>
      </trkpt>
      <trkpt lat="44.56546" lon="0.83229">
        <ele>142</ele>
        <time>2012-08-15T05:44:00Z</time>
      </trkpt>
      <trkpt lat="44.56515" lon="0.83228">
        <ele>142</ele>
        <time>2012-08-15T05:44:05Z</time>
      </trkpt>
      <trkpt lat="44.56484" lon="0.83227">
        <ele>142</ele>
        <time>2012-08-15T05:44:10Z</time>
      </trkpt>
      <trkpt lat="44.56448" lon="0.83233">
        <ele>142</ele>
        <time>2012-08-15T05:44:16Z</time>
      </trkpt>
      <trkpt lat="44.56416" lon="0.83241">
        <ele>142</ele>
        <time>2012-08-15T05:44:21Z</time>
      </trkpt>
      <trkpt lat="44.56377" lon="0.83251">
        <ele>142</ele>
        <time>2012-08-15T05:44:27Z</time>
      </trkpt>
      <trkpt lat="44.56344" lon="0.83258">
        <ele>141</ele>
        <time>2012-08-15T05:44:32Z</time>
      </trkpt>
      <trkpt lat="44.56314" lon="0.83263">
        <ele>140</ele>
        <time>2012-08-15T05:44:37Z</time>
      </trkpt>
      <trkpt lat="44.56281" lon="0.83268">
        <ele>139</ele>
        <time>2012-08-15T05:44:42Z</time>
      </trkpt>
      <trkpt lat="44.5624" lon="0.83274">
        <ele>138</ele>
        <time>2012-08-15T05:44:48Z</time>
      </trkpt>
      <trkpt lat="44.56205" lon="0.83279">
        <ele>137</ele>
        <time>2012-08-15T05:44:53Z</time>
      </trkpt>
      <trkpt lat="44.5617" lon="0.83287">
        <ele>137</ele>
        <time>2012-08-15T05:44:58Z</time>
      </trkpt>
      <trkpt lat="44.56128" lon="0.83302">
        <ele>135</ele>
        <time>2012-08-15T05:45:04Z</time>
      </trkpt>
      <trkpt lat="44.56079" lon="0.83311">
        <ele>133</ele>
        <time>2012-08-15T05:45:10Z</time>
      </trkpt>
      <trkpt lat="44.56037" lon="0.83326">
        <ele>130</ele>
        <time>2012-08-15T05:45:15Z</time>
      </trkpt>
      <trkpt lat="44.55999" lon="0.83369">
        <ele>128</ele>
        <time>2012-08-15T05:45:20Z</time>
      </trkpt>
      <trkpt lat="44.55965" lon="0.83408">
        <ele>124</ele>
        <time>2012-08-15T05:45:25Z</time>
      </trkpt>
      <trkpt lat="44.55932" lon="0.83442">
        <ele>118</ele>
        <time>2012-08-15T05:45:31Z</time>
      </trkpt>
      <trkpt lat="44.55893" lon="0.83461">
        <ele>115</ele>
        <time>2012-08-15T05:45:36Z</time>
      </trkpt>
      <trkpt lat="44.55855" lon="0.83467">
        <ele>115</ele>
        <time>2012-08-15T05:45:41Z</time>
      </trkpt>
      <trkpt lat="44.55833" lon="0.83478">
        <ele>115</ele>
        <time>2012-08-15T05:45:47Z</time>
      </trkpt>
      <trkpt lat="44.55843" lon="0.83486">
        <ele>115</ele>
        <time>2012-08-15T05:45:52Z</time>
      </trkpt>
      <trkpt lat="44.55866" lon="0.83498">
        <ele>115</ele>
        <time>2012-08-15T05:45:57Z</time>
      </trkpt>
      <trkpt lat="44.5588" lon="0.83538">
        <ele>115</ele>
        <time>2012-08-15T05:46:02Z</time>
      </trkpt>
      <trkpt lat="44.55896" lon="0.83558">
        <ele>115</ele>
        <time>2012-08-15T05:46:07Z</time>
      </trkpt>
      <trkpt lat="44.5591" lon="0.83581">
        <ele>115</ele>
        <time>2012-08-15T05:46:13Z</time>
      </trkpt>
      <trkpt lat="44.55917" lon="0.83601">
        <ele>118</ele>
        <time>2012-08-15T05:46:18Z</time>
      </trkpt>
      <trkpt lat="44.5592" lon="0.83616">
        <ele>121</ele>
        <time>2012-08-15T05:46:23Z</time>
      </trkpt>
      <trkpt lat="44.55932" lon="0.83622">
        <ele>123</ele>
        <time>2012-08-15T05:46:29Z</time>
      </trkpt>
      <trkpt lat="44.55943" lon="0.83622">
        <ele>124</ele>
        <time>2012-08-15T05:46:34Z</time>
      </trkpt>
      <trkpt lat="44.55952" lon="0.83625">
        <ele>125</ele>
        <time>2012-08-15T05:46:39Z</time>
      </trkpt>
      <trkpt lat="44.5596" lon="0.83637">
        <ele>128</ele>
        <time>2012-08-15T05:46:45Z</time>
      </trkpt>
      <trkpt lat="44.55964" lon="0.83653">
        <ele>132</ele>
        <time>2012-08-15T05:46:50Z</time>
      </trkpt>
      <trkpt lat="44.55967" lon="0.8368">
        <ele>134</ele>
        <time>2012-08-15T05:46:56Z</time>
      </trkpt>
      <trkpt lat="44.55964" lon="0.83713">
        <ele>134</ele>
        <time>2012-08-15T05:47:02Z</time>
      </trkpt>
      <trkpt lat="44.55957" lon="0.83746">
        <ele>133</ele>
        <time>2012-08-15T05:47:08Z</time>
      </trkpt>
      <trkpt lat="44.55956" lon="0.83763">
        <ele>133</ele>
        <time>2012-08-15T05:47:13Z</time>
      </trkpt>
      <trkpt lat="44.55966" lon="0.83749">
        <ele>133</ele>
        <time>2012-08-15T05:47:19Z</time>
      </trkpt>
      <trkpt lat="44.55976" lon="0.83729">
        <ele>132</ele>
        <time>2012-08-15T05:47:24Z</time>
      </trkpt>
      <trkpt lat="44.5599" lon="0.83704">
        <ele>130</ele>
        <time>2012-08-15T05:47:30Z</time>
      </trkpt>
      <trkpt lat="44.56003" lon="0.83684">
        <ele>128</ele>
        <time>2012-08-15T05:47:35Z</time>
      </trkpt>
      <trkpt lat="44.56022" lon="0.83657">
        <ele>126</ele>
        <time>2012-08-15T05:47:41Z</time>
      </trkpt>
      <trkpt lat="44.56045" lon="0.83632">
        <ele>122</ele>
        <time>2012-08-15T05:47:46Z</time>
      </trkpt>
      <trkpt lat="44.56071" lon="0.8361">
        <ele>122</ele>
        <time>2012-08-15T05:47:51Z</time>
      </trkpt>
      <trkpt lat="44.56106" lon="0.8358">
        <ele>121</ele>
        <time>2012-08-15T05:47:57Z</time>
      </trkpt>
      <trkpt lat="44.56136" lon="0.83552">
        <ele>118</ele>
        <time>2012-08-15T05:48:02Z</time>
      </trkpt>
      <trkpt lat="44.56156" lon="0.83534">
        <ele>118</ele>
        <time>2012-08-15T05:48:07Z</time>
      </trkpt>
      <trkpt lat="44.56172" lon="0.83537">
        <ele>118</ele>
        <time>2012-08-15T05:48:12Z</time>
      </trkpt>
      <trkpt lat="44.56188" lon="0.83555">
        <ele>124</ele>
        <time>2012-08-15T05:48:18Z</time>
      </trkpt>
      <trkpt lat="44.56212" lon="0.83561">
        <ele>130</ele>
        <time>2012-08-15T05:48:24Z</time>
      </trkpt>
      <trkpt lat="44.56232" lon="0.83564">
        <ele>135</ele>
        <time>2012-08-15T05:48:29Z</time>
      </trkpt>
      <trkpt lat="44.56247" lon="0.83571">
        <ele>140</ele>
        <time>2012-08-15T05:48:34Z</time>
      </trkpt>
      <trkpt lat="44.56272" lon="0.83578">
        <ele>143</ele>
        <time>2012-08-15T05:48:39Z</time>
      </trkpt>
      <trkpt lat="44.56298" lon="0.83574">
        <ele>143</ele>
        <time>2012-08-15T05:48:44Z</time>
      </trkpt>
      <trkpt lat="44.56322" lon="0.83562">
        <ele>142</ele>
        <time>2012-08-15T05:48:49Z</time>
      </trkpt>
      <trkpt lat="44.5635" lon="0.83552">
        <ele>139</ele>
        <time>2012-08-15T05:48:55Z</time>
      </trkpt>
      <trkpt lat="44.56377" lon="0.83541">
        <ele>138</ele>
        <time>2012-08-15T05:49:01Z</time>
      </trkpt>
      <trkpt lat="44.56395" lon="0.83522">
        <ele>137</ele>
        <time>2012-08-15T05:49:06Z</time>
      </trkpt>
      <trkpt lat="44.56421" lon="0.83498">
        <ele>137</ele>
        <time>2012-08-15T05:49:12Z</time>
      </trkpt>
      <trkpt lat="44.56451" lon="0.83489">
        <ele>137</ele>
        <time>2012-08-15T05:49:17Z</time>
      </trkpt>
      <trkpt lat="44.56472" lon="0.83479">
        <ele>137</ele>
        <time>2012-08-15T05:49:22Z</time>
      </trkpt>
      <trkpt lat="44.56501" lon="0.83499">
        <ele>137</ele>
        <time>2012-08-15T05:49:28Z</time>
      </trkpt>
      <trkpt lat="44.56527" lon="0.83518">
        <ele>137</ele>
        <time>2012-08-15T05:49:33Z</time>
      </trkpt>
      <trkpt lat="44.56558" lon="0.83539">
        <ele>137</ele>
        <time>2012-08-15T05:49:39Z</time>
      </trkpt>
      <trkpt lat="44.56587" lon="0.8356">
        <ele>137</ele>
        <time>2012-08-15T05:49:45Z</time>
      </trkpt>
      <trkpt lat="44.56615" lon="0.83574">
        <ele>139</ele>
        <time>2012-08-15T05:49:50Z</time>
      </trkpt>
      <trkpt lat="44.56641" lon="0.83584">
        <ele>140</ele>
        <time>2012-08-15T05:49:55Z</time>
      </trkpt>
      <trkpt lat="44.56665" lon="0.83594">
        <ele>141</ele>
        <time>2012-08-15T05:50:00Z</time>
      </trkpt>
      <trkpt lat="44.56692" lon="0.83606">
        <ele>143</ele>
        <time>2012-08-15T05:50:06Z</time>
      </trkpt>
      <trkpt lat="44.56713" lon="0.83626">
        <ele>145</ele>
        <time>2012-08-15T05:50:11Z</time>
      </trkpt>
      <trkpt lat="44.56731" lon="0.83653">
        <ele>147</ele>
        <time>2012-08-15T05:50:16Z</time>
      </trkpt>
      <trkpt lat="44.56744" lon="0.83678">
        <ele>148</ele>
        <time>2012-08-15T05:50:21Z</time>
      </trkpt>
      <trkpt lat="44.56753" lon="0.83701">
        <ele>151</ele>
        <time>2012-08-15T05:50:26Z</time>
      </trkpt>
      <trkpt lat="44.5677" lon="0.83714">
        <ele>151</ele>
        <time>2012-08-15T05:50:31Z</time>
      </trkpt>
      <trkpt lat="44.56794" lon="0.83702">
        <ele>151</ele>
        <time>2012-08-15T05:50:36Z</time>
      </trkpt>
      <trkpt lat="44.56824" lon="0.83688">
        <ele>151</ele>
        <time>2012-08-15T05:50:42Z</time>
      </trkpt>
      <trkpt lat="44.5685" lon="0.83662">
        <ele>149</ele>
        <time>2012-08-15T05:50:48Z</time>
      </trkpt>
      <trkpt lat="44.56873" lon="0.83636">
        <ele>144</ele>
        <time>2012-08-15T05:50:53Z</time>
      </trkpt>
      <trkpt lat="44.56894" lon="0.83618">
        <ele>139</ele>
        <time>2012-08-15T05:50:58Z</time>
      </trkpt>
      <trkpt lat="44.5691" lon="0.83639">
        <ele>137</ele>
        <time>2012-08-15T05:51:04Z</time>
      </trkpt>
      <trkpt lat="44.5692" lon="0.83668">
        <ele>137</ele>
        <time>2012-08-15T05:51:09Z</time>
      </trkpt>
      <trkpt lat="44.56937" lon="0.83704">
        <ele>139</ele>
        <time>2012-08-15T05:51:15Z</time>
      </trkpt>
      <trkpt lat="44.56952" lon="0.83732">
        <ele>140</ele>
        <time>2012-08-15T05:51:20Z</time>
      </trkpt>
      <trkpt lat="44.5696" lon="0.83763">
        <ele>141</ele>
        <time>2012-08-15T05:51:25Z</time>
      </trkpt>
      <trkpt lat="44.56947" lon="0.83788">
        <ele>142</ele>
        <time>2012-08-15T05:51:30Z</time>
      </trkpt>
      <trkpt lat="44.56925" lon="0.83807">
        <ele>142</ele>
        <time>2012-08-15T05:51:35Z</time>
      </trkpt>
      <trkpt lat="44.56904" lon="0.83833">
        <ele>142</ele>
        <time>2012-08-15T05:51:40Z</time>
      </trkpt>
      <trkpt lat="44.56888" lon="0.83887">
        <ele>142</ele>
        <time>2012-08-15T05:51:46Z</time>
      </trkpt>
      <trkpt lat="44.56881" lon="0.83936">
        <ele>142</ele>
        <time>2012-08-15T05:51:51Z</time>
      </trkpt>
      <trkpt lat="44.56892" lon="0.83983">
        <ele>142</ele>
        <time>2012-08-15T05:51:56Z</time>
      </trkpt>
      <trkpt lat="44.5691" lon="0.84022">
        <ele>145</ele>
        <time>2012-08-15T05:52:01Z</time>
      </trkpt>
      <trkpt lat="44.56929" lon="0.84071">
        <ele>148</ele>
        <time>2012-08-15T05:52:07Z</time>
      </trkpt>
      <trkpt lat="44.56945" lon="0.84118">
        <ele>149</ele>
        <time>2012-08-15T05:52:12Z</time>
      </trkpt>
      <trkpt lat="44.56941" lon="0.84148">
        <ele>149</ele>
        <time>2012-08-15T05:52:18Z</time>
      </trkpt>
      <trkpt lat="44.56914" lon="0.84175">
        <ele>149</ele>
        <time>2012-08-15T05:52:23Z</time>
      </trkpt>
      <trkpt lat="44.56873" lon="0.84197">
        <ele>146</ele>
        <time>2012-08-15T05:52:28Z</time>
      </trkpt>
      <trkpt lat="44.56826" lon="0.84242">
        <ele>140</ele>
        <time>2012-08-15T05:52:34Z</time>
      </trkpt>
      <trkpt lat="44.56793" lon="0.84294">
        <ele>135</ele>
        <time>2012-08-15T05:52:39Z</time>
      </trkpt>
      <trkpt lat="44.56778" lon="0.84347">
        <ele>133</ele>
        <time>2012-08-15T05:52:44Z</time>
      </trkpt>
      <trkpt lat="44.56773" lon="0.84408">
        <ele>132</ele>
        <time>2012-08-15T05:52:50Z</time>
      </trkpt>
      <trkpt lat="44.56756" lon="0.84467">
        <ele>131</ele>
        <time>2012-08-15T05:52:56Z</time>
      </trkpt>
      <trkpt lat="44.56757" lon="0.8451">
        <ele>130</ele>
        <time>2012-08-15T05:53:01Z</time>
      </trkpt>
      <trkpt lat="44.56763" lon="0.84549">
        <ele>130</ele>
        <time>2012-08-15T05:53:06Z</time>
      </trkpt>
      <trkpt lat="44.56765" lon="0.84572">
        <ele>131</ele>
        <time>2012-08-15T05:53:11Z</time>
      </trkpt>
      <trkpt lat="44.5678" lon="0.84596">
        <ele>133</ele>
        <time>2012-08-15T05:53:16Z</time>
      </trkpt>
      <trkpt lat="44.568" lon="0.84618">
        <ele>135</ele>
        <time>2012-08-15T05:53:22Z</time>
      </trkpt>
      <trkpt lat="44.56823" lon="0.84629">
        <ele>135</ele>
        <time>2012-08-15T05:53:27Z</time>
      </trkpt>
      <trkpt lat="44.56843" lon="0.84643">
        <ele>135</ele>
        <time>2012-08-15T05:53:32Z</time>
      </trkpt>
      <trkpt lat="44.5686" lon="0.84673">
        <ele>135</ele>
        <time>2012-08-15T05:53:38Z</time>
      </trkpt>
      <trkpt lat="44.56864" lon="0.84704">
        <ele>139</ele>
        <time>2012-08-15T05:53:43Z</time>
      </trkpt>
      <trkpt lat="44.56881" lon="0.84731">
        <ele>144</ele>
        <time>2012-08-15T05:53:48Z</time>
      </trkpt>
      <trkpt lat="44.56892" lon="0.8476">
        <ele>147</ele>
        <time>2012-08-15T05:53:53Z</time>
      </trkpt>
      <trkpt lat="44.56898" lon="0.84794">
        <ele>147</ele>
        <time>2012-08-15T05:53:59Z</time>
      </trkpt>
      <trkpt lat="44.56904" lon="0.84829">
        <ele>147</ele>
        <time>2012-08-15T05:54:04Z</time>
      </trkpt>
      <trkpt lat="44.56918" lon="0.84846">
        <ele>147</ele>
        <time>2012-08-15T05:54:09Z</time>
      </trkpt>
      <trkpt lat="44.56934" lon="0.84843">
        <ele>142</ele>
        <time>2012-08-15T05:54:15Z</time>
      </trkpt>
      <trkpt lat="44.56948" lon="0.84844">
        <ele>140</ele>
        <time>2012-08-15T05:54:21Z</time>
      </trkpt>
      <trkpt lat="44.56961" lon="0.84852">
        <ele>137</ele>
        <time>2012-08-15T05:54:27Z</time>
      </trkpt>
      <trkpt lat="44.5697" lon="0.84864">
        <ele>140</ele>
        <time>2012-08-15T05:54:32Z</time>
      </trkpt>
      <trkpt lat="44.56979" lon="0.84873">
        <ele>143</ele>
        <time>2012-08-15T05:54:38Z</time>
      </trkpt>
      <trkpt lat="44.5699" lon="0.84876">
        <ele>143</ele>
        <time>2012-08-15T05:54:44Z</time>
      </trkpt>
      <trkpt lat="44.56998" lon="0.84874">
        <ele>143</ele>
        <time>2012-08-15T05:54:49Z</time>
      </trkpt>
      <trkpt lat="44.57007" lon="0.84876">
        <ele>147</ele>
        <time>2012-08-15T05:54:54Z</time>
      </trkpt>
      <trkpt lat="44.57014" lon="0.84882">
        <ele>150</ele>
        <time>2012-08-15T05:54:59Z</time>
      </trkpt>
      <trkpt lat="44.57026" lon="0.84889">
        <ele>153</ele>
        <time>2012-08-15T05:55:04Z</time>
      </trkpt>
      <trkpt lat="44.57041" lon="0.849">
        <ele>156</ele>
        <time>2012-08-15T05:55:10Z</time>
      </trkpt>
      <trkpt lat="44.57055" lon="0.84907">
        <ele>156</ele>
        <time>2012-08-15T05:55:15Z</time>
      </trkpt>
      <trkpt lat="44.57073" lon="0.84907">
        <ele>156</ele>
        <time>2012-08-15T05:55:21Z</time>
      </trkpt>
      <trkpt lat="44.57091" lon="0.84906">
        <ele>156</ele>
        <time>2012-08-15T05:55:26Z</time>
      </trkpt>
      <trkpt lat="44.5711" lon="0.84904">
        <ele>156</ele>
        <time>2012-08-15T05:55:31Z</time>
      </trkpt>
      <trkpt lat="44.57132" lon="0.84904">
        <ele>155</ele>
        <time>2012-08-15T05:55:36Z</time>
      </trkpt>
      <trkpt lat="44.57154" lon="0.84899">
        <ele>155</ele>
        <time>2012-08-15T05:55:41Z</time>
      </trkpt>
      <trkpt lat="44.57174" lon="0.84911">
        <ele>155</ele>
        <time>2012-08-15T05:55:46Z</time>
      </trkpt>
      <trkpt lat="44.57201" lon="0.84916">
        <ele>155</ele>
        <time>2012-08-15T05:55:51Z</time>
      </trkpt>
      <trkpt lat="44.5723" lon="0.84912">
        <ele>155</ele>
        <time>2012-08-15T05:55:56Z</time>
      </trkpt>
      <trkpt lat="44.57246" lon="0.84943">
        <ele>155</ele>
        <time>2012-08-15T05:56:01Z</time>
      </trkpt>
      <trkpt lat="44.57255" lon="0.84984">
        <ele>155</ele>
        <time>2012-08-15T05:56:06Z</time>
      </trkpt>
      <trkpt lat="44.57269" lon="0.85027">
        <ele>156</ele>
        <time>2012-08-15T05:56:11Z</time>
      </trkpt>
      <trkpt lat="44.57282" lon="0.85066">
        <ele>157</ele>
        <time>2012-08-15T05:56:16Z</time>
      </trkpt>
      <trkpt lat="44.57301" lon="0.85102">
        <ele>157</ele>
        <time>2012-08-15T05:56:21Z</time>
      </trkpt>
      <trkpt lat="44.57316" lon="0.85136">
        <ele>157</ele>
        <time>2012-08-15T05:56:26Z</time>
      </trkpt>
      <trkpt lat="44.57332" lon="0.85171">
        <ele>157</ele>
        <time>2012-08-15T05:56:31Z</time>
      </trkpt>
      <trkpt lat="44.57349" lon="0.85207">
        <ele>157</ele>
        <time>2012-08-15T05:56:36Z</time>
      </trkpt>
      <trkpt lat="44.57365" lon="0.85246">
        <ele>157</ele>
        <time>2012-08-15T05:56:41Z</time>
      </trkpt>
      <trkpt lat="44.57388" lon="0.85282">
        <ele>160</ele>
        <time>2012-08-15T05:56:47Z</time>
      </trkpt>
      <trkpt lat="44.57408" lon="0.85302">
        <ele>163</ele>
        <time>2012-08-15T05:56:52Z</time>
      </trkpt>
      <trkpt lat="44.57442" lon="0.85327">
        <ele>167</ele>
        <time>2012-08-15T05:56:58Z</time>
      </trkpt>
      <trkpt lat="44.57476" lon="0.85354">
        <ele>168</ele>
        <time>2012-08-15T05:57:03Z</time>
      </trkpt>
      <trkpt lat="44.57504" lon="0.85389">
        <ele>168</ele>
        <time>2012-08-15T05:57:08Z</time>
      </trkpt>
      <trkpt lat="44.57536" lon="0.85414">
        <ele>168</ele>
        <time>2012-08-15T05:57:13Z</time>
      </trkpt>
      <trkpt lat="44.57569" lon="0.85435">
        <ele>168</ele>
        <time>2012-08-15T05:57:18Z</time>
      </trkpt>
      <trkpt lat="44.57592" lon="0.85452">
        <ele>168</ele>
        <time>2012-08-15T05:57:23Z</time>
      </trkpt>
      <trkpt lat="44.5761" lon="0.85462">
        <ele>171</ele>
        <time>2012-08-15T05:57:28Z</time>
      </trkpt>
      <trkpt lat="44.57629" lon="0.85457">
        <ele>172</ele>
        <time>2012-08-15T05:57:33Z</time>
      </trkpt>
      <trkpt lat="44.5764" lon="0.85431">
        <ele>172</ele>
        <time>2012-08-15T05:57:38Z</time>
      </trkpt>
      <trkpt lat="44.57651" lon="0.85419">
        <ele>171</ele>
        <time>2012-08-15T05:57:43Z</time>
      </trkpt>
      <trkpt lat="44.57674" lon="0.85442">
        <ele>168</ele>
        <time>2012-08-15T05:57:48Z</time>
      </trkpt>
      <trkpt lat="44.57701" lon="0.85465">
        <ele>167</ele>
        <time>2012-08-15T05:57:53Z</time>
      </trkpt>
      <trkpt lat="44.57716" lon="0.85505">
        <ele>167</ele>
        <time>2012-08-15T05:57:58Z</time>
      </trkpt>
      <trkpt lat="44.57718" lon="0.85545">
        <ele>167</ele>
        <time>2012-08-15T05:58:03Z</time>
      </trkpt>
      <trkpt lat="44.57713" lon="0.85603">
        <ele>167</ele>
        <time>2012-08-15T05:58:09Z</time>
      </trkpt>
      <trkpt lat="44.57715" lon="0.85638">
        <ele>166</ele>
        <time>2012-08-15T05:58:14Z</time>
      </trkpt>
      <trkpt lat="44.57719" lon="0.85673">
        <ele>164</ele>
        <time>2012-08-15T05:58:19Z</time>
      </trkpt>
      <trkpt lat="44.57732" lon="0.85708">
        <ele>163</ele>
        <time>2012-08-15T05:58:24Z</time>
      </trkpt>
      <trkpt lat="44.57748" lon="0.85746">
        <ele>163</ele>
        <time>2012-08-15T05:58:29Z</time>
      </trkpt>
      <trkpt lat="44.57768" lon="0.85787">
        <ele>163</ele>
        <time>2012-08-15T05:58:35Z</time>
      </trkpt>
      <trkpt lat="44.57787" lon="0.85823">
        <ele>163</ele>
        <time>2012-08-15T05:58:40Z</time>
      </trkpt>
      <trkpt lat="44.57802" lon="0.85854">
        <ele>163</ele>
        <time>2012-08-15T05:58:45Z</time>
      </trkpt>
      <trkpt lat="44.57818" lon="0.8588">
        <ele>163</ele>
        <time>2012-08-15T05:58:50Z</time>
      </trkpt>
      <trkpt lat="44.57839" lon="0.85899">
        <ele>163</ele>
        <time>2012-08-15T05:58:56Z</time>
      </trkpt>
      <trkpt lat="44.57862" lon="0.859">
        <ele>164</ele>
        <time>2012-08-15T05:59:02Z</time>
      </trkpt>
      <trkpt lat="44.57885" lon="0.85897">
        <ele>164</ele>
        <time>2012-08-15T05:59:07Z</time>
      </trkpt>
      <trkpt lat="44.57914" lon="0.85884">
        <ele>165</ele>
        <time>2012-08-15T05:59:12Z</time>
      </trkpt>
      <trkpt lat="44.57945" lon="0.85871">
        <ele>166</ele>
        <time>2012-08-15T05:59:17Z</time>
      </trkpt>
      <trkpt lat="44.57974" lon="0.85854">
        <ele>167</ele>
        <time>2012-08-15T05:59:22Z</time>
      </trkpt>
      <trkpt lat="44.58007" lon="0.85836">
        <ele>167</ele>
        <time>2012-08-15T05:59:28Z</time>
      </trkpt>
      <trkpt lat="44.58036" lon="0.85822">
        <ele>167</ele>
        <time>2012-08-15T05:59:33Z</time>
      </trkpt>
      <trkpt lat="44.58065" lon="0.85809">
        <ele>167</ele>
        <time>2012-08-15T05:59:38Z</time>
      </trkpt>
      <trkpt lat="44.58099" lon="0.85793">
        <ele>167</ele>
        <time>2012-08-15T05:59:44Z</time>
      </trkpt>
      <trkpt lat="44.5813" lon="0.85778">
        <ele>167</ele>
        <time>2012-08-15T05:59:49Z</time>
      </trkpt>
      <trkpt lat="44.58166" lon="0.85751">
        <ele>167</ele>
        <time>2012-08-15T05:59:55Z</time>
      </trkpt>
      <trkpt lat="44.58192" lon="0.85717">
        <ele>165</ele>
        <time>2012-08-15T06:00:00Z</time>
      </trkpt>
      <trkpt lat="44.58205" lon="0.85679">
        <ele>162</ele>
        <time>2012-08-15T06:00:05Z</time>
      </trkpt>
      <trkpt lat="44.58223" lon="0.85638">
        <ele>160</ele>
        <time>2012-08-15T06:00:11Z</time>
      </trkpt>
      <trkpt lat="44.58243" lon="0.85605">
        <ele>159</ele>
        <time>2012-08-15T06:00:16Z</time>
      </trkpt>
      <trkpt lat="44.58278" lon="0.85588">
        <ele>159</ele>
        <time>2012-08-15T06:00:21Z</time>
      </trkpt>
      <trkpt lat="44.58317" lon="0.85576">
        <ele>159</ele>
        <time>2012-08-15T06:00:26Z</time>
      </trkpt>
      <trkpt lat="44.58355" lon="0.85565">
        <ele>159</ele>
        <time>2012-08-15T06:00:31Z</time>
      </trkpt>
      <trkpt lat="44.58389" lon="0.85555">
        <ele>162</ele>
        <time>2012-08-15T06:00:36Z</time>
      </trkpt>
      <trkpt lat="44.58422" lon="0.85543">
        <ele>163</ele>
        <time>2012-08-15T06:00:41Z</time>
      </trkpt>
      <trkpt lat="44.5845" lon="0.85524">
        <ele>164</ele>
        <time>2012-08-15T06:00:46Z</time>
      </trkpt>
      <trkpt lat="44.58477" lon="0.855">
        <ele>165</ele>
        <time>2012-08-15T06:00:51Z</time>
      </trkpt>
      <trkpt lat="44.58516" lon="0.85474">
        <ele>165</ele>
        <time>2012-08-15T06:00:57Z</time>
      </trkpt>
      <trkpt lat="44.58553" lon="0.85468">
        <ele>163</ele>
        <time>2012-08-15T06:01:02Z</time>
      </trkpt>
      <trkpt lat="44.58591" lon="0.85475">
        <ele>161</ele>
        <time>2012-08-15T06:01:07Z</time>
      </trkpt>
      <trkpt lat="44.58633" lon="0.85486">
        <ele>160</ele>
        <time>2012-08-15T06:01:12Z</time>
      </trkpt>
      <trkpt lat="44.58684" lon="0.855">
        <ele>158</ele>
        <time>2012-08-15T06:01:18Z</time>
      </trkpt>
      <trkpt lat="44.58737" lon="0.85513">
        <ele>156</ele>
        <time>2012-08-15T06:01:24Z</time>
      </trkpt>
      <trkpt lat="44.5878" lon="0.8552">
        <ele>156</ele>
        <time>2012-08-15T06:01:29Z</time>
      </trkpt>
      <trkpt lat="44.58819" lon="0.85529">
        <ele>156</ele>
        <time>2012-08-15T06:01:34Z</time>
      </trkpt>
      <trkpt lat="44.58865" lon="0.85539">
        <ele>156</ele>
        <time>2012-08-15T06:01:40Z</time>
      </trkpt>
      <trkpt lat="44.58902" lon="0.8555">
        <ele>157</ele>
        <time>2012-08-15T06:01:45Z</time>
      </trkpt>
      <trkpt lat="44.58944" lon="0.8556">
        <ele>160</ele>
        <time>2012-08-15T06:01:51Z</time>
      </trkpt>
      <trkpt lat="44.58979" lon="0.85569">
        <ele>162</ele>
        <time>2012-08-15T06:01:56Z</time>
      </trkpt>
      <trkpt lat="44.59013" lon="0.85579">
        <ele>163</ele>
        <time>2012-08-15T06:02:01Z</time>
      </trkpt>
      <trkpt lat="44.59046" lon="0.85587">
        <ele>163</ele>
        <time>2012-08-15T06:02:06Z</time>
      </trkpt>
      <trkpt lat="44.59075" lon="0.85594">
        <ele>165</ele>
        <time>2012-08-15T06:02:11Z</time>
      </trkpt>
      <trkpt lat="44.59113" lon="0.85603">
        <ele>166</ele>
        <time>2012-08-15T06:02:17Z</time>
      </trkpt>
      <trkpt lat="44.59147" lon="0.85612">
        <ele>166</ele>
        <time>2012-08-15T06:02:22Z</time>
      </trkpt>
      <trkpt lat="44.59163" lon="0.85599">
        <ele>166</ele>
        <time>2012-08-15T06:02:27Z</time>
      </trkpt>
      <trkpt lat="44.59166" lon="0.85568">
        <ele>167</ele>
        <time>2012-08-15T06:02:32Z</time>
      </trkpt>
      <trkpt lat="44.59179" lon="0.85555">
        <ele>167</ele>
        <time>2012-08-15T06:02:37Z</time>
      </trkpt>
      <trkpt lat="44.59206" lon="0.85567">
        <ele>167</ele>
        <time>2012-08-15T06:02:42Z</time>
      </trkpt>
      <trkpt lat="44.59237" lon="0.85584">
        <ele>167</ele>
        <time>2012-08-15T06:02:47Z</time>
      </trkpt>
      <trkpt lat="44.59274" lon="0.85603">
        <ele>168</ele>
        <time>2012-08-15T06:02:53Z</time>
      </trkpt>
      <trkpt lat="44.59304" lon="0.85619">
        <ele>169</ele>
        <time>2012-08-15T06:02:58Z</time>
      </trkpt>
      <trkpt lat="44.59332" lon="0.85635">
        <ele>170</ele>
        <time>2012-08-15T06:03:03Z</time>
      </trkpt>
      <trkpt lat="44.59363" lon="0.85651">
        <ele>170</ele>
        <time>2012-08-15T06:03:08Z</time>
      </trkpt>
      <trkpt lat="44.59394" lon="0.85666">
        <ele>171</ele>
        <time>2012-08-15T06:03:13Z</time>
      </trkpt>
      <trkpt lat="44.59427" lon="0.85677">
        <ele>171</ele>
        <time>2012-08-15T06:03:18Z</time>
      </trkpt>
      <trkpt lat="44.59466" lon="0.8569">
        <ele>171</ele>
        <time>2012-08-15T06:03:24Z</time>
      </trkpt>
      <trkpt lat="44.59504" lon="0.85697">
        <ele>171</ele>
        <time>2012-08-15T06:03:30Z</time>
      </trkpt>
      <trkpt lat="44.59541" lon="0.85707">
        <ele>171</ele>
        <time>2012-08-15T06:03:35Z</time>
      </trkpt>
      <trkpt lat="44.59586" lon="0.85717">
        <ele>171</ele>
        <time>2012-08-15T06:03:41Z</time>
      </trkpt>
      <trkpt lat="44.59621" lon="0.85726">
        <ele>171</ele>
        <time>2012-08-15T06:03:46Z</time>
      </trkpt>
      <trkpt lat="44.59658" lon="0.85735">
        <ele>171</ele>
        <time>2012-08-15T06:03:51Z</time>
      </trkpt>
      <trkpt lat="44.59696" lon="0.85743">
        <ele>171</ele>
        <time>2012-08-15T06:03:56Z</time>
      </trkpt>
      <trkpt lat="44.59735" lon="0.85753">
        <ele>171</ele>
        <time>2012-08-15T06:04:01Z</time>
      </trkpt>
      <trkpt lat="44.59774" lon="0.85762">
        <ele>171</ele>
        <time>2012-08-15T06:04:07Z</time>
      </trkpt>
      <trkpt lat="44.5981" lon="0.85771">
        <ele>170</ele>
        <time>2012-08-15T06:04:13Z</time>
      </trkpt>
      <trkpt lat="44.59831" lon="0.85785">
        <ele>170</ele>
        <time>2012-08-15T06:04:18Z</time>
      </trkpt>
      <trkpt lat="44.59827" lon="0.85821">
        <ele>170</ele>
        <time>2012-08-15T06:04:23Z</time>
      </trkpt>
      <trkpt lat="44.59828" lon="0.85867">
        <ele>170</ele>
        <time>2012-08-15T06:04:28Z</time>
      </trkpt>
      <trkpt lat="44.59829" lon="0.85914">
        <ele>170</ele>
        <time>2012-08-15T06:04:33Z</time>
      </trkpt>
      <trkpt lat="44.59832" lon="0.85953">
        <ele>170</ele>
        <time>2012-08-15T06:04:38Z</time>
      </trkpt>
      <trkpt lat="44.59843" lon="0.85988">
        <ele>170</ele>
        <time>2012-08-15T06:04:43Z</time>
      </trkpt>
      <trkpt lat="44.59856" lon="0.86042">
        <ele>170</ele>
        <time>2012-08-15T06:04:49Z</time>
      </trkpt>
      <trkpt lat="44.59864" lon="0.86084">
        <ele>170</ele>
        <time>2012-08-15T06:04:54Z</time>
      </trkpt>
      <trkpt lat="44.59871" lon="0.8612">
        <ele>170</ele>
        <time>2012-08-15T06:05:00Z</time>
      </trkpt>
      <trkpt lat="44.59879" lon="0.86152">
        <ele>170</ele>
        <time>2012-08-15T06:05:06Z</time>
      </trkpt>
      <trkpt lat="44.59893" lon="0.8617">
        <ele>170</ele>
        <time>2012-08-15T06:05:11Z</time>
      </trkpt>
      <trkpt lat="44.59911" lon="0.86176">
        <ele>170</ele>
        <time>2012-08-15T06:05:17Z</time>
      </trkpt>
      <trkpt lat="44.5994" lon="0.86176">
        <ele>170</ele>
        <time>2012-08-15T06:05:22Z</time>
      </trkpt>
      <trkpt lat="44.59962" lon="0.86167">
        <ele>169</ele>
        <time>2012-08-15T06:05:27Z</time>
      </trkpt>
      <trkpt lat="44.5999" lon="0.86163">
        <ele>165</ele>
        <time>2012-08-15T06:05:32Z</time>
      </trkpt>
      <trkpt lat="44.60012" lon="0.86166">
        <ele>165</ele>
        <time>2012-08-15T06:05:37Z</time>
      </trkpt>
      <trkpt lat="44.60038" lon="0.8617">
        <ele>165</ele>
        <time>2012-08-15T06:05:42Z</time>
      </trkpt>
      <trkpt lat="44.60064" lon="0.86168">
        <ele>165</ele>
        <time>2012-08-15T06:05:47Z</time>
      </trkpt>
      <trkpt lat="44.60092" lon="0.86154">
        <ele>165</ele>
        <time>2012-08-15T06:05:52Z</time>
      </trkpt>
      <trkpt lat="44.6013" lon="0.8614">
        <ele>165</ele>
        <time>2012-08-15T06:05:58Z</time>
      </trkpt>
      <trkpt lat="44.60173" lon="0.86124">
        <ele>165</ele>
        <time>2012-08-15T06:06:04Z</time>
      </trkpt>
      <trkpt lat="44.602" lon="0.86133">
        <ele>165</ele>
        <time>2012-08-15T06:06:10Z</time>
      </trkpt>
      <trkpt lat="44.60218" lon="0.86171">
        <ele>165</ele>
        <time>2012-08-15T06:06:16Z</time>
      </trkpt>
      <trkpt lat="44.60237" lon="0.86194">
        <ele>167</ele>
        <time>2012-08-15T06:06:21Z</time>
      </trkpt>
      <trkpt lat="44.6026" lon="0.86238">
        <ele>167</ele>
        <time>2012-08-15T06:06:27Z</time>
      </trkpt>
      <trkpt lat="44.60294" lon="0.86297">
        <ele>167</ele>
        <time>2012-08-15T06:06:33Z</time>
      </trkpt>
      <trkpt lat="44.60304" lon="0.86338">
        <ele>163</ele>
        <time>2012-08-15T06:06:38Z</time>
      </trkpt>
      <trkpt lat="44.60298" lon="0.86377">
        <ele>159</ele>
        <time>2012-08-15T06:06:43Z</time>
      </trkpt>
      <trkpt lat="44.60287" lon="0.86409">
        <ele>158</ele>
        <time>2012-08-15T06:06:48Z</time>
      </trkpt>
      <trkpt lat="44.60271" lon="0.86448">
        <ele>159</ele>
        <time>2012-08-15T06:06:53Z</time>
      </trkpt>
      <trkpt lat="44.6026" lon="0.86497">
        <ele>165</ele>
        <time>2012-08-15T06:06:59Z</time>
      </trkpt>
      <trkpt lat="44.60273" lon="0.86505">
        <ele>170</ele>
        <time>2012-08-15T06:07:04Z</time>
      </trkpt>
      <trkpt lat="44.603" lon="0.86519">
        <ele>171</ele>
        <time>2012-08-15T06:07:09Z</time>
      </trkpt>
      <trkpt lat="44.60313" lon="0.86543">
        <ele>166</ele>
        <time>2012-08-15T06:07:14Z</time>
      </trkpt>
      <trkpt lat="44.60325" lon="0.86564">
        <ele>162</ele>
        <time>2012-08-15T06:07:19Z</time>
      </trkpt>
      <trkpt lat="44.6033" lon="0.86596">
        <ele>158</ele>
        <time>2012-08-15T06:07:24Z</time>
      </trkpt>
      <trkpt lat="44.6033" lon="0.86636">
        <ele>157</ele>
        <time>2012-08-15T06:07:30Z</time>
      </trkpt>
      <trkpt lat="44.6033" lon="0.86671">
        <ele>157</ele>
        <time>2012-08-15T06:07:35Z</time>
      </trkpt>
      <trkpt lat="44.60321" lon="0.86709">
        <ele>155</ele>
        <time>2012-08-15T06:07:40Z</time>
      </trkpt>
      <trkpt lat="44.6031" lon="0.86752">
        <ele>155</ele>
        <time>2012-08-15T06:07:45Z</time>
      </trkpt>
      <trkpt lat="44.60311" lon="0.86786">
        <ele>155</ele>
        <time>2012-08-15T06:07:50Z</time>
      </trkpt>
      <trkpt lat="44.60315" lon="0.86821">
        <ele>157</ele>
        <time>2012-08-15T06:07:56Z</time>
      </trkpt>
      <trkpt lat="44.60312" lon="0.86843">
        <ele>157</ele>
        <time>2012-08-15T06:08:01Z</time>
      </trkpt>
      <trkpt lat="44.60313" lon="0.86871">
        <ele>161</ele>
        <time>2012-08-15T06:08:07Z</time>
      </trkpt>
      <trkpt lat="44.60312" lon="0.86891">
        <ele>162</ele>
        <time>2012-08-15T06:08:12Z</time>
      </trkpt>
      <trkpt lat="44.60315" lon="0.86914">
        <ele>164</ele>
        <time>2012-08-15T06:08:17Z</time>
      </trkpt>
      <trkpt lat="44.60319" lon="0.86936">
        <ele>164</ele>
        <time>2012-08-15T06:08:22Z</time>
      </trkpt>
      <trkpt lat="44.60316" lon="0.86957">
        <ele>164</ele>
        <time>2012-08-15T06:08:28Z</time>
      </trkpt>
      <trkpt lat="44.60306" lon="0.86966">
        <ele>164</ele>
        <time>2012-08-15T06:08:33Z</time>
      </trkpt>
      <trkpt lat="44.60292" lon="0.86976">
        <ele>165</ele>
        <time>2012-08-15T06:08:38Z</time>
      </trkpt>
      <trkpt lat="44.60274" lon="0.86989">
        <ele>167</ele>
        <time>2012-08-15T06:08:43Z</time>
      </trkpt>
      <trkpt lat="44.60242" lon="0.87007">
        <ele>167</ele>
        <time>2012-08-15T06:08:48Z</time>
      </trkpt>
      <trkpt lat="44.60207" lon="0.87019">
        <ele>167</ele>
        <time>2012-08-15T06:08:53Z</time>
      </trkpt>
      <trkpt lat="44.60175" lon="0.87045">
        <ele>167</ele>
        <time>2012-08-15T06:08:58Z</time>
      </trkpt>
      <trkpt lat="44.60147" lon="0.87067">
        <ele>167</ele>
        <time>2012-08-15T06:09:03Z</time>
      </trkpt>
      <trkpt lat="44.60107" lon="0.87081">
        <ele>167</ele>
        <time>2012-08-15T06:09:09Z</time>
      </trkpt>
      <trkpt lat="44.60064" lon="0.87093">
        <ele>166</ele>
        <time>2012-08-15T06:09:14Z</time>
      </trkpt>
      <trkpt lat="44.60031" lon="0.87099">
        <ele>161</ele>
        <time>2012-08-15T06:09:19Z</time>
      </trkpt>
      <trkpt lat="44.60028" lon="0.87131">
        <ele>155</ele>
        <time>2012-08-15T06:09:25Z</time>
      </trkpt>
      <trkpt lat="44.60035" lon="0.87178">
        <ele>150</ele>
        <time>2012-08-15T06:09:30Z</time>
      </trkpt>
      <trkpt lat="44.60038" lon="0.87226">
        <ele>149</ele>
        <time>2012-08-15T06:09:35Z</time>
      </trkpt>
      <trkpt lat="44.60038" lon="0.8727">
        <ele>149</ele>
        <time>2012-08-15T06:09:40Z</time>
      </trkpt>
      <trkpt lat="44.6005" lon="0.87288">
        <ele>149</ele>
        <time>2012-08-15T06:09:45Z</time>
      </trkpt>
      <trkpt lat="44.60086" lon="0.87292">
        <ele>149</ele>
        <time>2012-08-15T06:09:51Z</time>
      </trkpt>
      <trkpt lat="44.6013" lon="0.87303">
        <ele>149</ele>
        <time>2012-08-15T06:09:57Z</time>
      </trkpt>
      <trkpt lat="44.60168" lon="0.87302">
        <ele>149</ele>
        <time>2012-08-15T06:10:02Z</time>
      </trkpt>
      <trkpt lat="44.60205" lon="0.87303">
        <ele>147</ele>
        <time>2012-08-15T06:10:07Z</time>
      </trkpt>
      <trkpt lat="44.60245" lon="0.87308">
        <ele>145</ele>
        <time>2012-08-15T06:10:13Z</time>
      </trkpt>
      <trkpt lat="44.60269" lon="0.87347">
        <ele>145</ele>
        <time>2012-08-15T06:10:20Z</time>
      </trkpt>
      <trkpt lat="44.60298" lon="0.87367">
        <ele>142</ele>
        <time>2012-08-15T06:10:26Z</time>
      </trkpt>
      <trkpt lat="44.6032" lon="0.87397">
        <ele>142</ele>
        <time>2012-08-15T06:10:31Z</time>
      </trkpt>
      <trkpt lat="44.6034" lon="0.87429">
        <ele>142</ele>
        <time>2012-08-15T06:10:36Z</time>
      </trkpt>
      <trkpt lat="44.60356" lon="0.87455">
        <ele>144</ele>
        <time>2012-08-15T06:10:41Z</time>
      </trkpt>
      <trkpt lat="44.60372" lon="0.87479">
        <ele>147</ele>
        <time>2012-08-15T06:10:46Z</time>
      </trkpt>
      <trkpt lat="44.60384" lon="0.87499">
        <ele>150</ele>
        <time>2012-08-15T06:10:51Z</time>
      </trkpt>
      <trkpt lat="44.60398" lon="0.87515">
        <ele>154</ele>
        <time>2012-08-15T06:10:56Z</time>
      </trkpt>
      <trkpt lat="44.60412" lon="0.87529">
        <ele>157</ele>
        <time>2012-08-15T06:11:01Z</time>
      </trkpt>
      <trkpt lat="44.60423" lon="0.87544">
        <ele>160</ele>
        <time>2012-08-15T06:11:06Z</time>
      </trkpt>
      <trkpt lat="44.60427" lon="0.87562">
        <ele>162</ele>
        <time>2012-08-15T06:11:11Z</time>
      </trkpt>
      <trkpt lat="44.60439" lon="0.87585">
        <ele>164</ele>
        <time>2012-08-15T06:11:16Z</time>
      </trkpt>
      <trkpt lat="44.60453" lon="0.87616">
        <ele>164</ele>
        <time>2012-08-15T06:11:22Z</time>
      </trkpt>
      <trkpt lat="44.60461" lon="0.87637">
        <ele>164</ele>
        <time>2012-08-15T06:11:27Z</time>
      </trkpt>
      <trkpt lat="44.60465" lon="0.87658">
        <ele>164</ele>
        <time>2012-08-15T06:11:32Z</time>
      </trkpt>
      <trkpt lat="44.60472" lon="0.87682">
        <ele>164</ele>
        <time>2012-08-15T06:11:37Z</time>
      </trkpt>
      <trkpt lat="44.60477" lon="0.87707">
        <ele>164</ele>
        <time>2012-08-15T06:11:42Z</time>
      </trkpt>
      <trkpt lat="44.60486" lon="0.87739">
        <ele>164</ele>
        <time>2012-08-15T06:11:48Z</time>
      </trkpt>
      <trkpt lat="44.60506" lon="0.87766">
        <ele>164</ele>
        <time>2012-08-15T06:11:54Z</time>
      </trkpt>
      <trkpt lat="44.60525" lon="0.87797">
        <ele>164</ele>
        <time>2012-08-15T06:11:59Z</time>
      </trkpt>
      <trkpt lat="44.60536" lon="0.87815">
        <ele>164</ele>
        <time>2012-08-15T06:12:04Z</time>
      </trkpt>
      <trkpt lat="44.60545" lon="0.87835">
        <ele>166</ele>
        <time>2012-08-15T06:12:09Z</time>
      </trkpt>
      <trkpt lat="44.60556" lon="0.87852">
        <ele>167</ele>
        <time>2012-08-15T06:12:14Z</time>
      </trkpt>
      <trkpt lat="44.60569" lon="0.87868">
        <ele>168</ele>
        <time>2012-08-15T06:12:19Z</time>
      </trkpt>
      <trkpt lat="44.6058" lon="0.87884">
        <ele>171</ele>
        <time>2012-08-15T06:12:25Z</time>
      </trkpt>
      <trkpt lat="44.60596" lon="0.87912">
        <ele>173</ele>
        <time>2012-08-15T06:12:30Z</time>
      </trkpt>
      <trkpt lat="44.60606" lon="0.87936">
        <ele>173</ele>
        <time>2012-08-15T06:12:35Z</time>
      </trkpt>
      <trkpt lat="44.6061" lon="0.87964">
        <ele>173</ele>
        <time>2012-08-15T06:12:40Z</time>
      </trkpt>
      <trkpt lat="44.60621" lon="0.87995">
        <ele>173</ele>
        <time>2012-08-15T06:12:46Z</time>
      </trkpt>
      <trkpt lat="44.6063" lon="0.88014">
        <ele>173</ele>
        <time>2012-08-15T06:12:51Z</time>
      </trkpt>
      <trkpt lat="44.60635" lon="0.88038">
        <ele>173</ele>
        <time>2012-08-15T06:12:57Z</time>
      </trkpt>
      <trkpt lat="44.60647" lon="0.88065">
        <ele>177</ele>
        <time>2012-08-15T06:13:03Z</time>
      </trkpt>
      <trkpt lat="44.60664" lon="0.88094">
        <ele>183</ele>
        <time>2012-08-15T06:13:09Z</time>
      </trkpt>
      <trkpt lat="44.60679" lon="0.88117">
        <ele>186</ele>
        <time>2012-08-15T06:13:14Z</time>
      </trkpt>
      <trkpt lat="44.60705" lon="0.8813">
        <ele>186</ele>
        <time>2012-08-15T06:13:20Z</time>
      </trkpt>
      <trkpt lat="44.60724" lon="0.88137">
        <ele>186</ele>
        <time>2012-08-15T06:13:26Z</time>
      </trkpt>
      <trkpt lat="44.60741" lon="0.88147">
        <ele>186</ele>
        <time>2012-08-15T06:13:31Z</time>
      </trkpt>
      <trkpt lat="44.60763" lon="0.88153">
        <ele>184</ele>
        <time>2012-08-15T06:13:36Z</time>
      </trkpt>
      <trkpt lat="44.60788" lon="0.88161">
        <ele>180</ele>
        <time>2012-08-15T06:13:42Z</time>
      </trkpt>
      <trkpt lat="44.60803" lon="0.88153">
        <ele>177</ele>
        <time>2012-08-15T06:13:47Z</time>
      </trkpt>
      <trkpt lat="44.60819" lon="0.88147">
        <ele>176</ele>
        <time>2012-08-15T06:13:52Z</time>
      </trkpt>
      <trkpt lat="44.60829" lon="0.8816">
        <ele>176</ele>
        <time>2012-08-15T06:13:57Z</time>
      </trkpt>
      <trkpt lat="44.60837" lon="0.88186">
        <ele>180</ele>
        <time>2012-08-15T06:14:03Z</time>
      </trkpt>
      <trkpt lat="44.6084" lon="0.88211">
        <ele>184</ele>
        <time>2012-08-15T06:14:08Z</time>
      </trkpt>
      <trkpt lat="44.60844" lon="0.88236">
        <ele>185</ele>
        <time>2012-08-15T06:14:13Z</time>
      </trkpt>
      <trkpt lat="44.60841" lon="0.88259">
        <ele>189</ele>
        <time>2012-08-15T06:14:18Z</time>
      </trkpt>
      <trkpt lat="44.60838" lon="0.88283">
        <ele>194</ele>
        <time>2012-08-15T06:14:23Z</time>
      </trkpt>
      <trkpt lat="44.60839" lon="0.88307">
        <ele>199</ele>
        <time>2012-08-15T06:14:28Z</time>
      </trkpt>
      <trkpt lat="44.60843" lon="0.88331">
        <ele>203</ele>
        <time>2012-08-15T06:14:34Z</time>
      </trkpt>
      <trkpt lat="44.60864" lon="0.88338">
        <ele>201</ele>
        <time>2012-08-15T06:14:40Z</time>
      </trkpt>
      <trkpt lat="44.60886" lon="0.88342">
        <ele>197</ele>
        <time>2012-08-15T06:14:45Z</time>
      </trkpt>
      <trkpt lat="44.60913" lon="0.88348">
        <ele>193</ele>
        <time>2012-08-15T06:14:51Z</time>
      </trkpt>
      <trkpt lat="44.60925" lon="0.88353">
        <ele>193</ele>
        <time>2012-08-15T06:14:56Z</time>
      </trkpt>
      <trkpt lat="44.60926" lon="0.88398">
        <ele>196</ele>
        <time>2012-08-15T06:15:02Z</time>
      </trkpt>
      <trkpt lat="44.60942" lon="0.88405">
        <ele>197</ele>
        <time>2012-08-15T06:15:07Z</time>
      </trkpt>
      <trkpt lat="44.60953" lon="0.88416">
        <ele>193</ele>
        <time>2012-08-15T06:15:12Z</time>
      </trkpt>
      <trkpt lat="44.60976" lon="0.88445">
        <ele>190</ele>
        <time>2012-08-15T06:15:17Z</time>
      </trkpt>
      <trkpt lat="44.60996" lon="0.88478">
        <ele>185</ele>
        <time>2012-08-15T06:15:22Z</time>
      </trkpt>
      <trkpt lat="44.61008" lon="0.88496">
        <ele>184</ele>
        <time>2012-08-15T06:15:27Z</time>
      </trkpt>
      <trkpt lat="44.61007" lon="0.88506">
        <ele>185</ele>
        <time>2012-08-15T06:15:32Z</time>
      </trkpt>
      <trkpt lat="44.61015" lon="0.88521">
        <ele>185</ele>
        <time>2012-08-15T06:15:38Z</time>
      </trkpt>
      <trkpt lat="44.61028" lon="0.88541">
        <ele>185</ele>
        <time>2012-08-15T06:15:43Z</time>
      </trkpt>
      <trkpt lat="44.61043" lon="0.8857">
        <ele>185</ele>
        <time>2012-08-15T06:15:48Z</time>
      </trkpt>
      <trkpt lat="44.61074" lon="0.88605">
        <ele>185</ele>
        <time>2012-08-15T06:15:54Z</time>
      </trkpt>
      <trkpt lat="44.61099" lon="0.88639">
        <ele>182</ele>
        <time>2012-08-15T06:15:59Z</time>
      </trkpt>
      <trkpt lat="44.61118" lon="0.88662">
        <ele>181</ele>
        <time>2012-08-15T06:16:04Z</time>
      </trkpt>
      <trkpt lat="44.61138" lon="0.88657">
        <ele>179</ele>
        <time>2012-08-15T06:16:10Z</time>
      </trkpt>
      <trkpt lat="44.6116" lon="0.88639">
        <ele>175</ele>
        <time>2012-08-15T06:16:16Z</time>
      </trkpt>
      <trkpt lat="44.61177" lon="0.88629">
        <ele>175</ele>
        <time>2012-08-15T06:16:21Z</time>
      </trkpt>
      <trkpt lat="44.61192" lon="0.88618">
        <ele>175</ele>
        <time>2012-08-15T06:16:26Z</time>
      </trkpt>
      <trkpt lat="44.61207" lon="0.88605">
        <ele>175</ele>
        <time>2012-08-15T06:16:31Z</time>
      </trkpt>
      <trkpt lat="44.61225" lon="0.88594">
        <ele>175</ele>
        <time>2012-08-15T06:16:36Z</time>
      </trkpt>
      <trkpt lat="44.61244" lon="0.88585">
        <ele>177</ele>
        <time>2012-08-15T06:16:41Z</time>
      </trkpt>
      <trkpt lat="44.61263" lon="0.88574">
        <ele>180</ele>
        <time>2012-08-15T06:16:46Z</time>
      </trkpt>
      <trkpt lat="44.61284" lon="0.88555">
        <ele>184</ele>
        <time>2012-08-15T06:16:52Z</time>
      </trkpt>
      <trkpt lat="44.61303" lon="0.88537">
        <ele>184</ele>
        <time>2012-08-15T06:16:57Z</time>
      </trkpt>
      <trkpt lat="44.61322" lon="0.88526">
        <ele>184</ele>
        <time>2012-08-15T06:17:02Z</time>
      </trkpt>
      <trkpt lat="44.61338" lon="0.88513">
        <ele>184</ele>
        <time>2012-08-15T06:17:07Z</time>
      </trkpt>
      <trkpt lat="44.61354" lon="0.88501">
        <ele>184</ele>
        <time>2012-08-15T06:17:12Z</time>
      </trkpt>
      <trkpt lat="44.6137" lon="0.88492">
        <ele>185</ele>
        <time>2012-08-15T06:17:17Z</time>
      </trkpt>
      <trkpt lat="44.61386" lon="0.88485">
        <ele>187</ele>
        <time>2012-08-15T06:17:22Z</time>
      </trkpt>
      <trkpt lat="44.61405" lon="0.88481">
        <ele>187</ele>
        <time>2012-08-15T06:17:28Z</time>
      </trkpt>
      <trkpt lat="44.61423" lon="0.88479">
        <ele>187</ele>
        <time>2012-08-15T06:17:33Z</time>
      </trkpt>
      <trkpt lat="44.61446" lon="0.88479">
        <ele>191</ele>
        <time>2012-08-15T06:17:39Z</time>
      </trkpt>
      <trkpt lat="44.6147" lon="0.88472">
        <ele>193</ele>
        <time>2012-08-15T06:17:45Z</time>
      </trkpt>
      <trkpt lat="44.61493" lon="0.88464">
        <ele>193</ele>
        <time>2012-08-15T06:17:50Z</time>
      </trkpt>
      <trkpt lat="44.61517" lon="0.88458">
        <ele>193</ele>
        <time>2012-08-15T06:17:55Z</time>
      </trkpt>
      <trkpt lat="44.61541" lon="0.88455">
        <ele>193</ele>
        <time>2012-08-15T06:18:00Z</time>
      </trkpt>
      <trkpt lat="44.61563" lon="0.88453">
        <ele>193</ele>
        <time>2012-08-15T06:18:05Z</time>
      </trkpt>
      <trkpt lat="44.61589" lon="0.8845">
        <ele>193</ele>
        <time>2012-08-15T06:18:10Z</time>
      </trkpt>
      <trkpt lat="44.61619" lon="0.88447">
        <ele>194</ele>
        <time>2012-08-15T06:18:15Z</time>
      </trkpt>
      <trkpt lat="44.61646" lon="0.88444">
        <ele>194</ele>
        <time>2012-08-15T06:18:20Z</time>
      </trkpt>
      <trkpt lat="44.61669" lon="0.8845">
        <ele>195</ele>
        <time>2012-08-15T06:18:25Z</time>
      </trkpt>
      <trkpt lat="44.61693" lon="0.88464">
        <ele>196</ele>
        <time>2012-08-15T06:18:30Z</time>
      </trkpt>
      <trkpt lat="44.61718" lon="0.88456">
        <ele>196</ele>
        <time>2012-08-15T06:18:35Z</time>
      </trkpt>
      <trkpt lat="44.61744" lon="0.88444">
        <ele>196</ele>
        <time>2012-08-15T06:18:40Z</time>
      </trkpt>
      <trkpt lat="44.61766" lon="0.88436">
        <ele>196</ele>
        <time>2012-08-15T06:18:45Z</time>
      </trkpt>
      <trkpt lat="44.61786" lon="0.88426">
        <ele>196</ele>
        <time>2012-08-15T06:18:50Z</time>
      </trkpt>
      <trkpt lat="44.61817" lon="0.88404">
        <ele>192</ele>
        <time>2012-08-15T06:18:55Z</time>
      </trkpt>
      <trkpt lat="44.61845" lon="0.88376">
        <ele>187</ele>
        <time>2012-08-15T06:19:00Z</time>
      </trkpt>
      <trkpt lat="44.61871" lon="0.88347">
        <ele>185</ele>
        <time>2012-08-15T06:19:06Z</time>
      </trkpt>
      <trkpt lat="44.61903" lon="0.88329">
        <ele>182</ele>
        <time>2012-08-15T06:19:11Z</time>
      </trkpt>
      <trkpt lat="44.61945" lon="0.88312">
        <ele>181</ele>
        <time>2012-08-15T06:19:16Z</time>
      </trkpt>
      <trkpt lat="44.61986" lon="0.88298">
        <ele>179</ele>
        <time>2012-08-15T06:19:22Z</time>
      </trkpt>
      <trkpt lat="44.62025" lon="0.88283">
        <ele>174</ele>
        <time>2012-08-15T06:19:27Z</time>
      </trkpt>
      <trkpt lat="44.6207" lon="0.8827">
        <ele>169</ele>
        <time>2012-08-15T06:19:32Z</time>
      </trkpt>
      <trkpt lat="44.62104" lon="0.88248">
        <ele>164</ele>
        <time>2012-08-15T06:19:37Z</time>
      </trkpt>
      <trkpt lat="44.62122" lon="0.88239">
        <ele>158</ele>
        <time>2012-08-15T06:19:43Z</time>
      </trkpt>
      <trkpt lat="44.6212" lon="0.88272">
        <ele>156</ele>
        <time>2012-08-15T06:19:49Z</time>
      </trkpt>
      <trkpt lat="44.62139" lon="0.883">
        <ele>156</ele>
        <time>2012-08-15T06:19:54Z</time>
      </trkpt>
      <trkpt lat="44.62164" lon="0.8831">
        <ele>156</ele>
        <time>2012-08-15T06:19:59Z</time>
      </trkpt>
      <trkpt lat="44.62199" lon="0.88309">
        <ele>159</ele>
        <time>2012-08-15T06:20:05Z</time>
      </trkpt>
      <trkpt lat="44.62224" lon="0.88313">
        <ele>159</ele>
        <time>2012-08-15T06:20:10Z</time>
      </trkpt>
      <trkpt lat="44.62244" lon="0.88311">
        <ele>159</ele>
        <time>2012-08-15T06:20:15Z</time>
      </trkpt>
      <trkpt lat="44.6227" lon="0.88294">
        <ele>159</ele>
        <time>2012-08-15T06:20:20Z</time>
      </trkpt>
      <trkpt lat="44.623" lon="0.88289">
        <ele>159</ele>
        <time>2012-08-15T06:20:25Z</time>
      </trkpt>
      <trkpt lat="44.62334" lon="0.88288">
        <ele>159</ele>
        <time>2012-08-15T06:20:31Z</time>
      </trkpt>
      <trkpt lat="44.62357" lon="0.88269">
        <ele>159</ele>
        <time>2012-08-15T06:20:37Z</time>
      </trkpt>
      <trkpt lat="44.62371" lon="0.88242">
        <ele>157</ele>
        <time>2012-08-15T06:20:43Z</time>
      </trkpt>
      <trkpt lat="44.62384" lon="0.8822">
        <ele>156</ele>
        <time>2012-08-15T06:20:48Z</time>
      </trkpt>
      <trkpt lat="44.62396" lon="0.88198">
        <ele>155</ele>
        <time>2012-08-15T06:20:53Z</time>
      </trkpt>
      <trkpt lat="44.62408" lon="0.88199">
        <ele>155</ele>
        <time>2012-08-15T06:20:58Z</time>
      </trkpt>
      <trkpt lat="44.62424" lon="0.88231">
        <ele>155</ele>
        <time>2012-08-15T06:21:04Z</time>
      </trkpt>
      <trkpt lat="44.62453" lon="0.88238">
        <ele>155</ele>
        <time>2012-08-15T06:21:10Z</time>
      </trkpt>
      <trkpt lat="44.62466" lon="0.88213">
        <ele>155</ele>
        <time>2012-08-15T06:21:15Z</time>
      </trkpt>
      <trkpt lat="44.62479" lon="0.882">
        <ele>157</ele>
        <time>2012-08-15T06:21:20Z</time>
      </trkpt>
      <trkpt lat="44.62494" lon="0.882">
        <ele>159</ele>
        <time>2012-08-15T06:21:25Z</time>
      </trkpt>
      <trkpt lat="44.62503" lon="0.88203">
        <ele>162</ele>
        <time>2012-08-15T06:21:31Z</time>
      </trkpt>
      <trkpt lat="44.62514" lon="0.88209">
        <ele>162</ele>
        <time>2012-08-15T06:21:36Z</time>
      </trkpt>
      <trkpt lat="44.62522" lon="0.88214">
        <ele>162</ele>
        <time>2012-08-15T06:21:41Z</time>
      </trkpt>
      <trkpt lat="44.62532" lon="0.88219">
        <ele>162</ele>
        <time>2012-08-15T06:21:46Z</time>
      </trkpt>
      <trkpt lat="44.62544" lon="0.88217">
        <ele>162</ele>
        <time>2012-08-15T06:21:51Z</time>
      </trkpt>
      <trkpt lat="44.62556" lon="0.88211">
        <ele>162</ele>
        <time>2012-08-15T06:21:56Z</time>
      </trkpt>
      <trkpt lat="44.6257" lon="0.88203">
        <ele>162</ele>
        <time>2012-08-15T06:22:02Z</time>
      </trkpt>
      <trkpt lat="44.6258" lon="0.88198">
        <ele>162</ele>
        <time>2012-08-15T06:22:07Z</time>
      </trkpt>
      <trkpt lat="44.62594" lon="0.88192">
        <ele>162</ele>
        <time>2012-08-15T06:22:13Z</time>
      </trkpt>
      <trkpt lat="44.62611" lon="0.88186">
        <ele>166</ele>
        <time>2012-08-15T06:22:19Z</time>
      </trkpt>
      <trkpt lat="44.62622" lon="0.88173">
        <ele>167</ele>
        <time>2012-08-15T06:22:25Z</time>
      </trkpt>
      <trkpt lat="44.62633" lon="0.88166">
        <ele>168</ele>
        <time>2012-08-15T06:22:30Z</time>
      </trkpt>
      <trkpt lat="44.62641" lon="0.88157">
        <ele>168</ele>
        <time>2012-08-15T06:22:35Z</time>
      </trkpt>
      <trkpt lat="44.62653" lon="0.88145">
        <ele>172</ele>
        <time>2012-08-15T06:22:41Z</time>
      </trkpt>
      <trkpt lat="44.62661" lon="0.88131">
        <ele>174</ele>
        <time>2012-08-15T06:22:46Z</time>
      </trkpt>
      <trkpt lat="44.62666" lon="0.88111">
        <ele>176</ele>
        <time>2012-08-15T06:22:51Z</time>
      </trkpt>
      <trkpt lat="44.62675" lon="0.88083">
        <ele>176</ele>
        <time>2012-08-15T06:22:56Z</time>
      </trkpt>
      <trkpt lat="44.62686" lon="0.88058">
        <ele>176</ele>
        <time>2012-08-15T06:23:01Z</time>
      </trkpt>
      <trkpt lat="44.62701" lon="0.88037">
        <ele>176</ele>
        <time>2012-08-15T06:23:06Z</time>
      </trkpt>
      <trkpt lat="44.62724" lon="0.8801">
        <ele>176</ele>
        <time>2012-08-15T06:23:11Z</time>
      </trkpt>
      <trkpt lat="44.62748" lon="0.87981">
        <ele>176</ele>
        <time>2012-08-15T06:23:16Z</time>
      </trkpt>
      <trkpt lat="44.62774" lon="0.87949">
        <ele>175</ele>
        <time>2012-08-15T06:23:21Z</time>
      </trkpt>
      <trkpt lat="44.62795" lon="0.87919">
        <ele>175</ele>
        <time>2012-08-15T06:23:26Z</time>
      </trkpt>
      <trkpt lat="44.6281" lon="0.87897">
        <ele>175</ele>
        <time>2012-08-15T06:23:31Z</time>
      </trkpt>
      <trkpt lat="44.62825" lon="0.87878">
        <ele>175</ele>
        <time>2012-08-15T06:23:37Z</time>
      </trkpt>
      <trkpt lat="44.62836" lon="0.87875">
        <ele>176</ele>
        <time>2012-08-15T06:23:42Z</time>
      </trkpt>
      <trkpt lat="44.62846" lon="0.87882">
        <ele>181</ele>
        <time>2012-08-15T06:23:48Z</time>
      </trkpt>
      <trkpt lat="44.62854" lon="0.87888">
        <ele>187</ele>
        <time>2012-08-15T06:23:55Z</time>
      </trkpt>
      <trkpt lat="44.62859" lon="0.87893">
        <ele>191</ele>
        <time>2012-08-15T06:24:00Z</time>
      </trkpt>
      <trkpt lat="44.62867" lon="0.87897">
        <ele>191</ele>
        <time>2012-08-15T06:24:05Z</time>
      </trkpt>
      <trkpt lat="44.62873" lon="0.879">
        <ele>191</ele>
        <time>2012-08-15T06:24:10Z</time>
      </trkpt>
      <trkpt lat="44.62883" lon="0.87891">
        <ele>188</ele>
        <time>2012-08-15T06:24:15Z</time>
      </trkpt>
      <trkpt lat="44.62901" lon="0.87879">
        <ele>184</ele>
        <time>2012-08-15T06:24:20Z</time>
      </trkpt>
      <trkpt lat="44.6292" lon="0.87865">
        <ele>182</ele>
        <time>2012-08-15T06:24:25Z</time>
      </trkpt>
      <trkpt lat="44.6294" lon="0.87854">
        <ele>182</ele>
        <time>2012-08-15T06:24:30Z</time>
      </trkpt>
      <trkpt lat="44.62949" lon="0.87846">
        <ele>182</ele>
        <time>2012-08-15T06:24:35Z</time>
      </trkpt>
      <trkpt lat="44.62953" lon="0.87831">
        <ele>182</ele>
        <time>2012-08-15T06:24:40Z</time>
      </trkpt>
      <trkpt lat="44.62955" lon="0.87815">
        <ele>182</ele>
        <time>2012-08-15T06:24:45Z</time>
      </trkpt>
      <trkpt lat="44.6296" lon="0.87795">
        <ele>182</ele>
        <time>2012-08-15T06:24:50Z</time>
      </trkpt>
      <trkpt lat="44.62968" lon="0.87769">
        <ele>182</ele>
        <time>2012-08-15T06:24:55Z</time>
      </trkpt>
      <trkpt lat="44.62976" lon="0.87727">
        <ele>184</ele>
        <time>2012-08-15T06:25:01Z</time>
      </trkpt>
      <trkpt lat="44.62975" lon="0.87683">
        <ele>184</ele>
        <time>2012-08-15T06:25:07Z</time>
      </trkpt>
      <trkpt lat="44.62954" lon="0.87648">
        <ele>185</ele>
        <time>2012-08-15T06:25:13Z</time>
      </trkpt>
      <trkpt lat="44.62925" lon="0.87622">
        <ele>185</ele>
        <time>2012-08-15T06:25:18Z</time>
      </trkpt>
      <trkpt lat="44.62897" lon="0.87594">
        <ele>185</ele>
        <time>2012-08-15T06:25:23Z</time>
      </trkpt>
      <trkpt lat="44.6287" lon="0.87571">
        <ele>185</ele>
        <time>2012-08-15T06:25:28Z</time>
      </trkpt>
      <trkpt lat="44.62855" lon="0.87553">
        <ele>184</ele>
        <time>2012-08-15T06:25:33Z</time>
      </trkpt>
      <trkpt lat="44.62881" lon="0.87545">
        <ele>182</ele>
        <time>2012-08-15T06:25:39Z</time>
      </trkpt>
      <trkpt lat="44.62913" lon="0.87539">
        <ele>180</ele>
        <time>2012-08-15T06:25:44Z</time>
      </trkpt>
      <trkpt lat="44.62956" lon="0.87527">
        <ele>178</ele>
        <time>2012-08-15T06:25:50Z</time>
      </trkpt>
      <trkpt lat="44.62997" lon="0.87516">
        <ele>178</ele>
        <time>2012-08-15T06:25:55Z</time>
      </trkpt>
      <trkpt lat="44.63043" lon="0.87501">
        <ele>178</ele>
        <time>2012-08-15T06:26:01Z</time>
      </trkpt>
      <trkpt lat="44.63065" lon="0.87464">
        <ele>178</ele>
        <time>2012-08-15T06:26:06Z</time>
      </trkpt>
      <trkpt lat="44.63069" lon="0.87418">
        <ele>178</ele>
        <time>2012-08-15T06:26:12Z</time>
      </trkpt>
      <trkpt lat="44.6307" lon="0.87387">
        <ele>181</ele>
        <time>2012-08-15T06:26:17Z</time>
      </trkpt>
      <trkpt lat="44.63071" lon="0.87358">
        <ele>183</ele>
        <time>2012-08-15T06:26:22Z</time>
      </trkpt>
      <trkpt lat="44.63072" lon="0.8733">
        <ele>185</ele>
        <time>2012-08-15T06:26:27Z</time>
      </trkpt>
      <trkpt lat="44.63076" lon="0.87304">
        <ele>186</ele>
        <time>2012-08-15T06:26:32Z</time>
      </trkpt>
      <trkpt lat="44.63083" lon="0.87284">
        <ele>189</ele>
        <time>2012-08-15T06:26:38Z</time>
      </trkpt>
      <trkpt lat="44.63088" lon="0.87266">
        <ele>189</ele>
        <time>2012-08-15T06:26:43Z</time>
      </trkpt>
      <trkpt lat="44.63094" lon="0.87254">
        <ele>189</ele>
        <time>2012-08-15T06:26:48Z</time>
      </trkpt>
      <trkpt lat="44.63098" lon="0.87235">
        <ele>190</ele>
        <time>2012-08-15T06:26:54Z</time>
      </trkpt>
      <trkpt lat="44.63102" lon="0.87223">
        <ele>193</ele>
        <time>2012-08-15T06:26:59Z</time>
      </trkpt>
      <trkpt lat="44.6311" lon="0.87204">
        <ele>194</ele>
        <time>2012-08-15T06:27:05Z</time>
      </trkpt>
      <trkpt lat="44.63118" lon="0.87188">
        <ele>196</ele>
        <time>2012-08-15T06:27:10Z</time>
      </trkpt>
      <trkpt lat="44.63124" lon="0.87178">
        <ele>196</ele>
        <time>2012-08-15T06:27:16Z</time>
      </trkpt>
      <trkpt lat="44.63129" lon="0.87177">
        <ele>198</ele>
        <time>2012-08-15T06:27:24Z</time>
      </trkpt>
      <trkpt lat="44.63131" lon="0.87177">
        <ele>201</ele>
        <time>2012-08-15T06:27:35Z</time>
      </trkpt>
      <trkpt lat="44.63131" lon="0.87179">
        <ele>201</ele>
        <time>2012-08-15T06:27:53Z</time>
      </trkpt>
      <trkpt lat="44.63131" lon="0.8718">
        <ele>201</ele>
        <time>2012-08-15T06:27:58Z</time>
      </trkpt>
      <trkpt lat="44.6313" lon="0.87182">
        <ele>202</ele>
        <time>2012-08-15T06:28:05Z</time>
      </trkpt>
      <trkpt lat="44.63129" lon="0.87183">
        <ele>206</ele>
        <time>2012-08-15T06:28:41Z</time>
      </trkpt>
      <trkpt lat="44.63128" lon="0.87184">
        <ele>210</ele>
        <time>2012-08-15T06:28:50Z</time>
      </trkpt>
      <trkpt lat="44.63129" lon="0.87186">
        <ele>213</ele>
        <time>2012-08-15T06:29:02Z</time>
      </trkpt>
      <trkpt lat="44.63128" lon="0.87185">
        <ele>214</ele>
        <time>2012-08-15T06:29:11Z</time>
      </trkpt>
      <trkpt lat="44.63128" lon="0.87183">
        <ele>214</ele>
        <time>2012-08-15T06:29:19Z</time>
      </trkpt>
      <trkpt lat="44.63127" lon="0.87182">
        <ele>211</ele>
        <time>2012-08-15T06:29:34Z</time>
      </trkpt>
      <trkpt lat="44.63127" lon="0.87183">
        <ele>211</ele>
        <time>2012-08-15T06:29:47Z</time>
      </trkpt>
      <trkpt lat="44.63128" lon="0.87185">
        <ele>211</ele>
        <time>2012-08-15T06:29:55Z</time>
      </trkpt>
      <trkpt lat="44.63129" lon="0.87185">
        <ele>211</ele>
        <time>2012-08-15T06:30:05Z</time>
      </trkpt>
      <trkpt lat="44.6313" lon="0.87186">
        <ele>212</ele>
        <time>2012-08-15T06:30:17Z</time>
      </trkpt>
      <trkpt lat="44.63131" lon="0.87185">
        <ele>212</ele>
        <time>2012-08-15T06:30:29Z</time>
      </trkpt>
      <trkpt lat="44.63132" lon="0.87184">
        <ele>213</ele>
        <time>2012-08-15T06:30:43Z</time>
      </trkpt>
      <trkpt lat="44.63133" lon="0.87183">
        <ele>213</ele>
        <time>2012-08-15T06:31:05Z</time>
      </trkpt>
      <trkpt lat="44.63131" lon="0.87182">
        <ele>213</ele>
        <time>2012-08-15T06:31:23Z</time>
      </trkpt>
      <trkpt lat="44.63131" lon="0.8718">
        <ele>208</ele>
        <time>2012-08-15T06:31:43Z</time>
      </trkpt>
      <trkpt lat="44.6313" lon="0.87179">
        <ele>205</ele>
        <time>2012-08-15T06:31:53Z</time>
      </trkpt>
      <trkpt lat="44.6313" lon="0.87181">
        <ele>204</ele>
        <time>2012-08-15T06:32:15Z</time>
      </trkpt>
      <trkpt lat="44.6313" lon="0.87182">
        <ele>205</ele>
        <time>2012-08-15T06:32:29Z</time>
      </trkpt>
      <trkpt lat="44.63131" lon="0.8718">
        <ele>211</ele>
        <time>2012-08-15T06:34:07Z</time>
      </trkpt>
      <trkpt lat="44.63131" lon="0.87178">
        <ele>213</ele>
        <time>2012-08-15T06:34:23Z</time>
      </trkpt>
      <trkpt lat="44.6313" lon="0.87177">
        <ele>212</ele>
        <time>2012-08-15T06:34:29Z</time>
      </trkpt>
      <trkpt lat="44.6313" lon="0.87176">
        <ele>208</ele>
        <time>2012-08-15T06:34:39Z</time>
      </trkpt>
      <trkpt lat="44.63131" lon="0.87177">
        <ele>205</ele>
        <time>2012-08-15T06:34:46Z</time>
      </trkpt>
      <trkpt lat="44.63133" lon="0.87172">
        <ele>203</ele>
        <time>2012-08-15T06:34:51Z</time>
      </trkpt>
      <trkpt lat="44.63127" lon="0.87151">
        <ele>202</ele>
        <time>2012-08-15T06:34:56Z</time>
      </trkpt>
      <trkpt lat="44.63116" lon="0.87124">
        <ele>200</ele>
        <time>2012-08-15T06:35:02Z</time>
      </trkpt>
      <trkpt lat="44.63101" lon="0.87089">
        <ele>199</ele>
        <time>2012-08-15T06:35:07Z</time>
      </trkpt>
      <trkpt lat="44.63084" lon="0.87051">
        <ele>197</ele>
        <time>2012-08-15T06:35:13Z</time>
      </trkpt>
      <trkpt lat="44.63077" lon="0.87012">
        <ele>194</ele>
        <time>2012-08-15T06:35:18Z</time>
      </trkpt>
      <trkpt lat="44.63086" lon="0.86971">
        <ele>190</ele>
        <time>2012-08-15T06:35:24Z</time>
      </trkpt>
      <trkpt lat="44.6311" lon="0.86927">
        <ele>185</ele>
        <time>2012-08-15T06:35:29Z</time>
      </trkpt>
      <trkpt lat="44.63148" lon="0.86874">
        <ele>181</ele>
        <time>2012-08-15T06:35:34Z</time>
      </trkpt>
      <trkpt lat="44.63187" lon="0.86817">
        <ele>177</ele>
        <time>2012-08-15T06:35:39Z</time>
      </trkpt>
      <trkpt lat="44.63213" lon="0.86764">
        <ele>174</ele>
        <time>2012-08-15T06:35:44Z</time>
      </trkpt>
      <trkpt lat="44.63233" lon="0.86711">
        <ele>170</ele>
        <time>2012-08-15T06:35:49Z</time>
      </trkpt>
      <trkpt lat="44.63252" lon="0.8666">
        <ele>164</ele>
        <time>2012-08-15T06:35:55Z</time>
      </trkpt>
      <trkpt lat="44.63275" lon="0.86658">
        <ele>162</ele>
        <time>2012-08-15T06:36:01Z</time>
      </trkpt>
      <trkpt lat="44.63293" lon="0.86671">
        <ele>162</ele>
        <time>2012-08-15T06:36:07Z</time>
      </trkpt>
      <trkpt lat="44.63309" lon="0.86672">
        <ele>162</ele>
        <time>2012-08-15T06:36:12Z</time>
      </trkpt>
      <trkpt lat="44.63321" lon="0.86664">
        <ele>162</ele>
        <time>2012-08-15T06:36:17Z</time>
      </trkpt>
      <trkpt lat="44.63331" lon="0.86652">
        <ele>164</ele>
        <time>2012-08-15T06:36:23Z</time>
      </trkpt>
      <trkpt lat="44.63342" lon="0.86642">
        <ele>169</ele>
        <time>2012-08-15T06:36:28Z</time>
      </trkpt>
      <trkpt lat="44.6335" lon="0.86633">
        <ele>174</ele>
        <time>2012-08-15T06:36:34Z</time>
      </trkpt>
      <trkpt lat="44.63359" lon="0.86617">
        <ele>174</ele>
        <time>2012-08-15T06:36:39Z</time>
      </trkpt>
      <trkpt lat="44.63372" lon="0.86612">
        <ele>174</ele>
        <time>2012-08-15T06:36:45Z</time>
      </trkpt>
      <trkpt lat="44.63385" lon="0.86607">
        <ele>175</ele>
        <time>2012-08-15T06:36:50Z</time>
      </trkpt>
      <trkpt lat="44.63401" lon="0.866">
        <ele>175</ele>
        <time>2012-08-15T06:36:55Z</time>
      </trkpt>
      <trkpt lat="44.63411" lon="0.86587">
        <ele>177</ele>
        <time>2012-08-15T06:37:01Z</time>
      </trkpt>
      <trkpt lat="44.6342" lon="0.86572">
        <ele>181</ele>
        <time>2012-08-15T06:37:07Z</time>
      </trkpt>
      <trkpt lat="44.63428" lon="0.86553">
        <ele>182</ele>
        <time>2012-08-15T06:37:12Z</time>
      </trkpt>
      <trkpt lat="44.63433" lon="0.86541">
        <ele>182</ele>
        <time>2012-08-15T06:37:18Z</time>
      </trkpt>
      <trkpt lat="44.63426" lon="0.86533">
        <ele>182</ele>
        <time>2012-08-15T06:37:23Z</time>
      </trkpt>
      <trkpt lat="44.63409" lon="0.86524">
        <ele>186</ele>
        <time>2012-08-15T06:37:28Z</time>
      </trkpt>
      <trkpt lat="44.63398" lon="0.8651">
        <ele>186</ele>
        <time>2012-08-15T06:37:34Z</time>
      </trkpt>
      <trkpt lat="44.63385" lon="0.86491">
        <ele>186</ele>
        <time>2012-08-15T06:37:39Z</time>
      </trkpt>
      <trkpt lat="44.63394" lon="0.8646">
        <ele>186</ele>
        <time>2012-08-15T06:37:44Z</time>
      </trkpt>
      <trkpt lat="44.63407" lon="0.86429">
        <ele>185</ele>
        <time>2012-08-15T06:37:49Z</time>
      </trkpt>
      <trkpt lat="44.63422" lon="0.86401">
        <ele>184</ele>
        <time>2012-08-15T06:37:55Z</time>
      </trkpt>
      <trkpt lat="44.63438" lon="0.8637">
        <ele>184</ele>
        <time>2012-08-15T06:38:00Z</time>
      </trkpt>
      <trkpt lat="44.63453" lon="0.8634">
        <ele>183</ele>
        <time>2012-08-15T06:38:05Z</time>
      </trkpt>
      <trkpt lat="44.63473" lon="0.8631">
        <ele>183</ele>
        <time>2012-08-15T06:38:10Z</time>
      </trkpt>
      <trkpt lat="44.6349" lon="0.86277">
        <ele>183</ele>
        <time>2012-08-15T06:38:15Z</time>
      </trkpt>
      <trkpt lat="44.63509" lon="0.86244">
        <ele>182</ele>
        <time>2012-08-15T06:38:20Z</time>
      </trkpt>
      <trkpt lat="44.63533" lon="0.86212">
        <ele>181</ele>
        <time>2012-08-15T06:38:25Z</time>
      </trkpt>
      <trkpt lat="44.63541" lon="0.86187">
        <ele>181</ele>
        <time>2012-08-15T06:38:34Z</time>
      </trkpt>
      <trkpt lat="44.63531" lon="0.8618">
        <ele>181</ele>
        <time>2012-08-15T06:38:40Z</time>
      </trkpt>
      <trkpt lat="44.63522" lon="0.86162">
        <ele>181</ele>
        <time>2012-08-15T06:38:45Z</time>
      </trkpt>
      <trkpt lat="44.63521" lon="0.86149">
        <ele>181</ele>
        <time>2012-08-15T06:38:50Z</time>
      </trkpt>
      <trkpt lat="44.63523" lon="0.86127">
        <ele>181</ele>
        <time>2012-08-15T06:38:55Z</time>
      </trkpt>
      <trkpt lat="44.63536" lon="0.86093">
        <ele>181</ele>
        <time>2012-08-15T06:39:01Z</time>
      </trkpt>
      <trkpt lat="44.63543" lon="0.86036">
        <ele>177</ele>
        <time>2012-08-15T06:39:06Z</time>
      </trkpt>
      <trkpt lat="44.63552" lon="0.85992">
        <ele>175</ele>
        <time>2012-08-15T06:39:11Z</time>
      </trkpt>
      <trkpt lat="44.63557" lon="0.85948">
        <ele>172</ele>
        <time>2012-08-15T06:39:17Z</time>
      </trkpt>
      <trkpt lat="44.63553" lon="0.85931">
        <ele>169</ele>
        <time>2012-08-15T06:39:22Z</time>
      </trkpt>
      <trkpt lat="44.63545" lon="0.85904">
        <ele>165</ele>
        <time>2012-08-15T06:39:27Z</time>
      </trkpt>
      <trkpt lat="44.63541" lon="0.85875">
        <ele>164</ele>
        <time>2012-08-15T06:39:32Z</time>
      </trkpt>
      <trkpt lat="44.63528" lon="0.85851">
        <ele>164</ele>
        <time>2012-08-15T06:39:38Z</time>
      </trkpt>
      <trkpt lat="44.63509" lon="0.85841">
        <ele>168</ele>
        <time>2012-08-15T06:39:43Z</time>
      </trkpt>
      <trkpt lat="44.63489" lon="0.85838">
        <ele>169</ele>
        <time>2012-08-15T06:39:48Z</time>
      </trkpt>
      <trkpt lat="44.63472" lon="0.85835">
        <ele>169</ele>
        <time>2012-08-15T06:39:53Z</time>
      </trkpt>
      <trkpt lat="44.63468" lon="0.85817">
        <ele>173</ele>
        <time>2012-08-15T06:39:58Z</time>
      </trkpt>
      <trkpt lat="44.63463" lon="0.85794">
        <ele>176</ele>
        <time>2012-08-15T06:40:03Z</time>
      </trkpt>
      <trkpt lat="44.63457" lon="0.85779">
        <ele>176</ele>
        <time>2012-08-15T06:40:09Z</time>
      </trkpt>
      <trkpt lat="44.63451" lon="0.85767">
        <ele>176</ele>
        <time>2012-08-15T06:40:14Z</time>
      </trkpt>
      <trkpt lat="44.63449" lon="0.85761">
        <ele>176</ele>
        <time>2012-08-15T06:40:20Z</time>
      </trkpt>
      <trkpt lat="44.63449" lon="0.85755">
        <ele>176</ele>
        <time>2012-08-15T06:40:26Z</time>
      </trkpt>
      <trkpt lat="44.6345" lon="0.85751">
        <ele>176</ele>
        <time>2012-08-15T06:40:31Z</time>
      </trkpt>
      <trkpt lat="44.63448" lon="0.85739">
        <ele>176</ele>
        <time>2012-08-15T06:40:36Z</time>
      </trkpt>
      <trkpt lat="44.63442" lon="0.85723">
        <ele>176</ele>
        <time>2012-08-15T06:40:42Z</time>
      </trkpt>
      <trkpt lat="44.63435" lon="0.85712">
        <ele>179</ele>
        <time>2012-08-15T06:40:47Z</time>
      </trkpt>
      <trkpt lat="44.63427" lon="0.857">
        <ele>181</ele>
        <time>2012-08-15T06:40:52Z</time>
      </trkpt>
      <trkpt lat="44.63417" lon="0.85684">
        <ele>182</ele>
        <time>2012-08-15T06:40:57Z</time>
      </trkpt>
      <trkpt lat="44.63407" lon="0.85665">
        <ele>182</ele>
        <time>2012-08-15T06:41:02Z</time>
      </trkpt>
      <trkpt lat="44.63398" lon="0.85648">
        <ele>182</ele>
        <time>2012-08-15T06:41:07Z</time>
      </trkpt>
      <trkpt lat="44.63404" lon="0.85619">
        <ele>182</ele>
        <time>2012-08-15T06:41:13Z</time>
      </trkpt>
      <trkpt lat="44.63419" lon="0.85591">
        <ele>182</ele>
        <time>2012-08-15T06:41:18Z</time>
      </trkpt>
      <trkpt lat="44.6344" lon="0.85561">
        <ele>182</ele>
        <time>2012-08-15T06:41:23Z</time>
      </trkpt>
      <trkpt lat="44.6345" lon="0.85533">
        <ele>182</ele>
        <time>2012-08-15T06:41:28Z</time>
      </trkpt>
      <trkpt lat="44.63427" lon="0.85514">
        <ele>180</ele>
        <time>2012-08-15T06:41:33Z</time>
      </trkpt>
      <trkpt lat="44.63401" lon="0.85501">
        <ele>180</ele>
        <time>2012-08-15T06:41:38Z</time>
      </trkpt>
      <trkpt lat="44.63374" lon="0.8549">
        <ele>180</ele>
        <time>2012-08-15T06:41:43Z</time>
      </trkpt>
      <trkpt lat="44.63342" lon="0.85472">
        <ele>180</ele>
        <time>2012-08-15T06:41:49Z</time>
      </trkpt>
      <trkpt lat="44.63312" lon="0.85454">
        <ele>180</ele>
        <time>2012-08-15T06:41:55Z</time>
      </trkpt>
      <trkpt lat="44.63283" lon="0.85441">
        <ele>180</ele>
        <time>2012-08-15T06:42:00Z</time>
      </trkpt>
      <trkpt lat="44.6325" lon="0.85424">
        <ele>180</ele>
        <time>2012-08-15T06:42:05Z</time>
      </trkpt>
      <trkpt lat="44.63201" lon="0.85395">
        <ele>177</ele>
        <time>2012-08-15T06:42:10Z</time>
      </trkpt>
      <trkpt lat="44.63162" lon="0.85356">
        <ele>174</ele>
        <time>2012-08-15T06:42:16Z</time>
      </trkpt>
      <trkpt lat="44.63126" lon="0.85313">
        <ele>171</ele>
        <time>2012-08-15T06:42:21Z</time>
      </trkpt>
      <trkpt lat="44.63089" lon="0.85269">
        <ele>168</ele>
        <time>2012-08-15T06:42:26Z</time>
      </trkpt>
      <trkpt lat="44.63051" lon="0.85249">
        <ele>167</ele>
        <time>2012-08-15T06:42:31Z</time>
      </trkpt>
      <trkpt lat="44.6301" lon="0.85233">
        <ele>167</ele>
        <time>2012-08-15T06:42:36Z</time>
      </trkpt>
      <trkpt lat="44.62963" lon="0.85213">
        <ele>167</ele>
        <time>2012-08-15T06:42:42Z</time>
      </trkpt>
      <trkpt lat="44.62917" lon="0.85194">
        <ele>167</ele>
        <time>2012-08-15T06:42:47Z</time>
      </trkpt>
      <trkpt lat="44.62875" lon="0.85177">
        <ele>167</ele>
        <time>2012-08-15T06:42:53Z</time>
      </trkpt>
      <trkpt lat="44.62832" lon="0.85162">
        <ele>167</ele>
        <time>2012-08-15T06:42:58Z</time>
      </trkpt>
      <trkpt lat="44.62795" lon="0.85145">
        <ele>167</ele>
        <time>2012-08-15T06:43:03Z</time>
      </trkpt>
      <trkpt lat="44.62757" lon="0.85125">
        <ele>165</ele>
        <time>2012-08-15T06:43:08Z</time>
      </trkpt>
      <trkpt lat="44.62716" lon="0.85112">
        <ele>163</ele>
        <time>2012-08-15T06:43:13Z</time>
      </trkpt>
      <trkpt lat="44.62669" lon="0.85103">
        <ele>161</ele>
        <time>2012-08-15T06:43:19Z</time>
      </trkpt>
      <trkpt lat="44.62626" lon="0.85087">
        <ele>159</ele>
        <time>2012-08-15T06:43:24Z</time>
      </trkpt>
      <trkpt lat="44.62581" lon="0.85066">
        <ele>157</ele>
        <time>2012-08-15T06:43:29Z</time>
      </trkpt>
      <trkpt lat="44.62544" lon="0.85049">
        <ele>156</ele>
        <time>2012-08-15T06:43:35Z</time>
      </trkpt>
      <trkpt lat="44.62498" lon="0.85034">
        <ele>155</ele>
        <time>2012-08-15T06:43:40Z</time>
      </trkpt>
      <trkpt lat="44.6246" lon="0.85027">
        <ele>153</ele>
        <time>2012-08-15T06:43:45Z</time>
      </trkpt>
      <trkpt lat="44.62428" lon="0.85016">
        <ele>152</ele>
        <time>2012-08-15T06:43:51Z</time>
      </trkpt>
      <trkpt lat="44.62411" lon="0.8498">
        <ele>151</ele>
        <time>2012-08-15T06:43:56Z</time>
      </trkpt>
      <trkpt lat="44.62391" lon="0.84928">
        <ele>150</ele>
        <time>2012-08-15T06:44:02Z</time>
      </trkpt>
      <trkpt lat="44.6237" lon="0.84864">
        <ele>146</ele>
        <time>2012-08-15T06:44:08Z</time>
      </trkpt>
      <trkpt lat="44.62352" lon="0.84806">
        <ele>144</ele>
        <time>2012-08-15T06:44:13Z</time>
      </trkpt>
      <trkpt lat="44.62333" lon="0.84739">
        <ele>142</ele>
        <time>2012-08-15T06:44:18Z</time>
      </trkpt>
      <trkpt lat="44.62314" lon="0.84674">
        <ele>140</ele>
        <time>2012-08-15T06:44:23Z</time>
      </trkpt>
      <trkpt lat="44.6229" lon="0.84598">
        <ele>139</ele>
        <time>2012-08-15T06:44:28Z</time>
      </trkpt>
      <trkpt lat="44.62284" lon="0.84541">
        <ele>138</ele>
        <time>2012-08-15T06:44:34Z</time>
      </trkpt>
      <trkpt lat="44.62296" lon="0.84486">
        <ele>138</ele>
        <time>2012-08-15T06:44:39Z</time>
      </trkpt>
      <trkpt lat="44.62312" lon="0.84437">
        <ele>134</ele>
        <time>2012-08-15T06:44:44Z</time>
      </trkpt>
      <trkpt lat="44.62305" lon="0.84398">
        <ele>131</ele>
        <time>2012-08-15T06:44:50Z</time>
      </trkpt>
      <trkpt lat="44.62277" lon="0.84378">
        <ele>131</ele>
        <time>2012-08-15T06:44:55Z</time>
      </trkpt>
      <trkpt lat="44.62236" lon="0.84368">
        <ele>131</ele>
        <time>2012-08-15T06:45:00Z</time>
      </trkpt>
      <trkpt lat="44.62192" lon="0.84355">
        <ele>128</ele>
        <time>2012-08-15T06:45:05Z</time>
      </trkpt>
      <trkpt lat="44.62144" lon="0.84329">
        <ele>123</ele>
        <time>2012-08-15T06:45:10Z</time>
      </trkpt>
      <trkpt lat="44.62093" lon="0.84309">
        <ele>118</ele>
        <time>2012-08-15T06:45:16Z</time>
      </trkpt>
      <trkpt lat="44.62053" lon="0.84301">
        <ele>113</ele>
        <time>2012-08-15T06:45:21Z</time>
      </trkpt>
      <trkpt lat="44.62025" lon="0.84315">
        <ele>110</ele>
        <time>2012-08-15T06:45:26Z</time>
      </trkpt>
      <trkpt lat="44.62004" lon="0.84333">
        <ele>110</ele>
        <time>2012-08-15T06:45:31Z</time>
      </trkpt>
      <trkpt lat="44.61988" lon="0.84355">
        <ele>110</ele>
        <time>2012-08-15T06:45:37Z</time>
      </trkpt>
      <trkpt lat="44.61976" lon="0.84368">
        <ele>113</ele>
        <time>2012-08-15T06:45:42Z</time>
      </trkpt>
      <trkpt lat="44.61966" lon="0.8438">
        <ele>115</ele>
        <time>2012-08-15T06:45:47Z</time>
      </trkpt>
      <trkpt lat="44.61956" lon="0.84392">
        <ele>118</ele>
        <time>2012-08-15T06:45:52Z</time>
      </trkpt>
      <trkpt lat="44.61945" lon="0.84406">
        <ele>121</ele>
        <time>2012-08-15T06:45:57Z</time>
      </trkpt>
      <trkpt lat="44.61935" lon="0.84421">
        <ele>123</ele>
        <time>2012-08-15T06:46:02Z</time>
      </trkpt>
      <trkpt lat="44.61924" lon="0.84439">
        <ele>124</ele>
        <time>2012-08-15T06:46:07Z</time>
      </trkpt>
      <trkpt lat="44.61913" lon="0.84459">
        <ele>126</ele>
        <time>2012-08-15T06:46:12Z</time>
      </trkpt>
      <trkpt lat="44.61903" lon="0.84476">
        <ele>127</ele>
        <time>2012-08-15T06:46:17Z</time>
      </trkpt>
      <trkpt lat="44.61892" lon="0.84495">
        <ele>127</ele>
        <time>2012-08-15T06:46:22Z</time>
      </trkpt>
      <trkpt lat="44.61878" lon="0.84519">
        <ele>128</ele>
        <time>2012-08-15T06:46:28Z</time>
      </trkpt>
      <trkpt lat="44.61863" lon="0.84549">
        <ele>128</ele>
        <time>2012-08-15T06:46:34Z</time>
      </trkpt>
      <trkpt lat="44.61848" lon="0.84575">
        <ele>128</ele>
        <time>2012-08-15T06:46:39Z</time>
      </trkpt>
      <trkpt lat="44.61832" lon="0.84601">
        <ele>128</ele>
        <time>2012-08-15T06:46:44Z</time>
      </trkpt>
      <trkpt lat="44.61817" lon="0.84628">
        <ele>128</ele>
        <time>2012-08-15T06:46:49Z</time>
      </trkpt>
      <trkpt lat="44.61802" lon="0.84662">
        <ele>129</ele>
        <time>2012-08-15T06:46:55Z</time>
      </trkpt>
      <trkpt lat="44.6179" lon="0.84689">
        <ele>130</ele>
        <time>2012-08-15T06:47:00Z</time>
      </trkpt>
      <trkpt lat="44.61777" lon="0.84725">
        <ele>132</ele>
        <time>2012-08-15T06:47:06Z</time>
      </trkpt>
      <trkpt lat="44.61767" lon="0.8475">
        <ele>134</ele>
        <time>2012-08-15T06:47:11Z</time>
      </trkpt>
      <trkpt lat="44.61757" lon="0.8477">
        <ele>135</ele>
        <time>2012-08-15T06:47:16Z</time>
      </trkpt>
      <trkpt lat="44.61747" lon="0.8479">
        <ele>137</ele>
        <time>2012-08-15T06:47:21Z</time>
      </trkpt>
      <trkpt lat="44.61734" lon="0.84811">
        <ele>140</ele>
        <time>2012-08-15T06:47:26Z</time>
      </trkpt>
      <trkpt lat="44.61723" lon="0.84833">
        <ele>142</ele>
        <time>2012-08-15T06:47:31Z</time>
      </trkpt>
      <trkpt lat="44.61711" lon="0.84854">
        <ele>142</ele>
        <time>2012-08-15T06:47:36Z</time>
      </trkpt>
      <trkpt lat="44.61698" lon="0.84875">
        <ele>143</ele>
        <time>2012-08-15T06:47:41Z</time>
      </trkpt>
      <trkpt lat="44.61685" lon="0.84895">
        <ele>143</ele>
        <time>2012-08-15T06:47:46Z</time>
      </trkpt>
      <trkpt lat="44.61672" lon="0.84917">
        <ele>143</ele>
        <time>2012-08-15T06:47:51Z</time>
      </trkpt>
      <trkpt lat="44.61659" lon="0.84941">
        <ele>143</ele>
        <time>2012-08-15T06:47:56Z</time>
      </trkpt>
      <trkpt lat="44.61647" lon="0.84965">
        <ele>143</ele>
        <time>2012-08-15T06:48:01Z</time>
      </trkpt>
      <trkpt lat="44.61635" lon="0.84991">
        <ele>143</ele>
        <time>2012-08-15T06:48:06Z</time>
      </trkpt>
      <trkpt lat="44.61623" lon="0.85017">
        <ele>144</ele>
        <time>2012-08-15T06:48:11Z</time>
      </trkpt>
      <trkpt lat="44.61609" lon="0.85049">
        <ele>147</ele>
        <time>2012-08-15T06:48:16Z</time>
      </trkpt>
      <trkpt lat="44.61597" lon="0.85074">
        <ele>149</ele>
        <time>2012-08-15T06:48:21Z</time>
      </trkpt>
      <trkpt lat="44.61586" lon="0.85098">
        <ele>150</ele>
        <time>2012-08-15T06:48:27Z</time>
      </trkpt>
      <trkpt lat="44.61575" lon="0.8513">
        <ele>152</ele>
        <time>2012-08-15T06:48:32Z</time>
      </trkpt>
      <trkpt lat="44.6156" lon="0.85156">
        <ele>155</ele>
        <time>2012-08-15T06:48:37Z</time>
      </trkpt>
      <trkpt lat="44.61546" lon="0.85181">
        <ele>156</ele>
        <time>2012-08-15T06:48:42Z</time>
      </trkpt>
      <trkpt lat="44.61526" lon="0.85202">
        <ele>156</ele>
        <time>2012-08-15T06:48:47Z</time>
      </trkpt>
      <trkpt lat="44.61508" lon="0.85221">
        <ele>156</ele>
        <time>2012-08-15T06:48:52Z</time>
      </trkpt>
      <trkpt lat="44.61494" lon="0.85245">
        <ele>156</ele>
        <time>2012-08-15T06:48:57Z</time>
      </trkpt>
      <trkpt lat="44.61484" lon="0.85272">
        <ele>156</ele>
        <time>2012-08-15T06:49:02Z</time>
      </trkpt>
      <trkpt lat="44.61476" lon="0.85312">
        <ele>156</ele>
        <time>2012-08-15T06:49:08Z</time>
      </trkpt>
      <trkpt lat="44.61463" lon="0.85374">
        <ele>156</ele>
        <time>2012-08-15T06:49:14Z</time>
      </trkpt>
      <trkpt lat="44.61453" lon="0.8542">
        <ele>156</ele>
        <time>2012-08-15T06:49:19Z</time>
      </trkpt>
      <trkpt lat="44.6144" lon="0.85483">
        <ele>156</ele>
        <time>2012-08-15T06:49:24Z</time>
      </trkpt>
      <trkpt lat="44.6143" lon="0.85552">
        <ele>156</ele>
        <time>2012-08-15T06:49:30Z</time>
      </trkpt>
      <trkpt lat="44.61431" lon="0.85594">
        <ele>156</ele>
        <time>2012-08-15T06:49:36Z</time>
      </trkpt>
      <trkpt lat="44.61425" lon="0.85636">
        <ele>156</ele>
        <time>2012-08-15T06:49:41Z</time>
      </trkpt>
      <trkpt lat="44.61414" lon="0.85665">
        <ele>156</ele>
        <time>2012-08-15T06:49:47Z</time>
      </trkpt>
      <trkpt lat="44.61401" lon="0.8568">
        <ele>156</ele>
        <time>2012-08-15T06:49:52Z</time>
      </trkpt>
      <trkpt lat="44.61384" lon="0.85654">
        <ele>156</ele>
        <time>2012-08-15T06:49:58Z</time>
      </trkpt>
      <trkpt lat="44.61377" lon="0.85628">
        <ele>157</ele>
        <time>2012-08-15T06:50:03Z</time>
      </trkpt>
      <trkpt lat="44.61371" lon="0.85606">
        <ele>157</ele>
        <time>2012-08-15T06:50:08Z</time>
      </trkpt>
      <trkpt lat="44.61359" lon="0.85575">
        <ele>158</ele>
        <time>2012-08-15T06:50:13Z</time>
      </trkpt>
      <trkpt lat="44.61335" lon="0.85521">
        <ele>158</ele>
        <time>2012-08-15T06:50:19Z</time>
      </trkpt>
      <trkpt lat="44.61315" lon="0.85473">
        <ele>158</ele>
        <time>2012-08-15T06:50:25Z</time>
      </trkpt>
      <trkpt lat="44.61298" lon="0.85435">
        <ele>161</ele>
        <time>2012-08-15T06:50:31Z</time>
      </trkpt>
      <trkpt lat="44.61291" lon="0.85411">
        <ele>163</ele>
        <time>2012-08-15T06:50:36Z</time>
      </trkpt>
      <trkpt lat="44.61298" lon="0.85387">
        <ele>165</ele>
        <time>2012-08-15T06:50:41Z</time>
      </trkpt>
      <trkpt lat="44.61313" lon="0.85366">
        <ele>165</ele>
        <time>2012-08-15T06:50:46Z</time>
      </trkpt>
      <trkpt lat="44.61332" lon="0.85346">
        <ele>166</ele>
        <time>2012-08-15T06:50:51Z</time>
      </trkpt>
      <trkpt lat="44.61345" lon="0.85321">
        <ele>167</ele>
        <time>2012-08-15T06:50:56Z</time>
      </trkpt>
      <trkpt lat="44.61357" lon="0.85293">
        <ele>167</ele>
        <time>2012-08-15T06:51:01Z</time>
      </trkpt>
      <trkpt lat="44.61374" lon="0.85241">
        <ele>165</ele>
        <time>2012-08-15T06:51:07Z</time>
      </trkpt>
      <trkpt lat="44.61377" lon="0.8519">
        <ele>164</ele>
        <time>2012-08-15T06:51:12Z</time>
      </trkpt>
      <trkpt lat="44.61386" lon="0.85138">
        <ele>161</ele>
        <time>2012-08-15T06:51:17Z</time>
      </trkpt>
      <trkpt lat="44.61394" lon="0.85081">
        <ele>158</ele>
        <time>2012-08-15T06:51:22Z</time>
      </trkpt>
      <trkpt lat="44.61406" lon="0.85026">
        <ele>156</ele>
        <time>2012-08-15T06:51:27Z</time>
      </trkpt>
      <trkpt lat="44.61424" lon="0.8499">
        <ele>155</ele>
        <time>2012-08-15T06:51:32Z</time>
      </trkpt>
      <trkpt lat="44.61404" lon="0.84945">
        <ele>155</ele>
        <time>2012-08-15T06:51:38Z</time>
      </trkpt>
      <trkpt lat="44.61386" lon="0.84906">
        <ele>155</ele>
        <time>2012-08-15T06:51:43Z</time>
      </trkpt>
      <trkpt lat="44.61373" lon="0.84866">
        <ele>155</ele>
        <time>2012-08-15T06:51:48Z</time>
      </trkpt>
      <trkpt lat="44.61366" lon="0.84827">
        <ele>155</ele>
        <time>2012-08-15T06:51:53Z</time>
      </trkpt>
      <trkpt lat="44.61355" lon="0.848">
        <ele>155</ele>
        <time>2012-08-15T06:51:58Z</time>
      </trkpt>
      <trkpt lat="44.61339" lon="0.84789">
        <ele>154</ele>
        <time>2012-08-15T06:52:03Z</time>
      </trkpt>
      <trkpt lat="44.61334" lon="0.84764">
        <ele>152</ele>
        <time>2012-08-15T06:52:08Z</time>
      </trkpt>
      <trkpt lat="44.61319" lon="0.84734">
        <ele>150</ele>
        <time>2012-08-15T06:52:13Z</time>
      </trkpt>
      <trkpt lat="44.613" lon="0.847">
        <ele>146</ele>
        <time>2012-08-15T06:52:18Z</time>
      </trkpt>
      <trkpt lat="44.61278" lon="0.84688">
        <ele>141</ele>
        <time>2012-08-15T06:52:23Z</time>
      </trkpt>
      <trkpt lat="44.61258" lon="0.84685">
        <ele>136</ele>
        <time>2012-08-15T06:52:28Z</time>
      </trkpt>
      <trkpt lat="44.61236" lon="0.84693">
        <ele>136</ele>
        <time>2012-08-15T06:52:33Z</time>
      </trkpt>
      <trkpt lat="44.61213" lon="0.84692">
        <ele>136</ele>
        <time>2012-08-15T06:52:38Z</time>
      </trkpt>
      <trkpt lat="44.61194" lon="0.8468">
        <ele>136</ele>
        <time>2012-08-15T06:52:43Z</time>
      </trkpt>
      <trkpt lat="44.61176" lon="0.84661">
        <ele>136</ele>
        <time>2012-08-15T06:52:48Z</time>
      </trkpt>
      <trkpt lat="44.61155" lon="0.84644">
        <ele>136</ele>
        <time>2012-08-15T06:52:53Z</time>
      </trkpt>
      <trkpt lat="44.61124" lon="0.84623">
        <ele>136</ele>
        <time>2012-08-15T06:52:59Z</time>
      </trkpt>
      <trkpt lat="44.61099" lon="0.84599">
        <ele>138</ele>
        <time>2012-08-15T06:53:04Z</time>
      </trkpt>
      <trkpt lat="44.61108" lon="0.84556">
        <ele>139</ele>
        <time>2012-08-15T06:53:09Z</time>
      </trkpt>
      <trkpt lat="44.61092" lon="0.84515">
        <ele>139</ele>
        <time>2012-08-15T06:53:14Z</time>
      </trkpt>
      <trkpt lat="44.61075" lon="0.84476">
        <ele>138</ele>
        <time>2012-08-15T06:53:19Z</time>
      </trkpt>
      <trkpt lat="44.61057" lon="0.84478">
        <ele>136</ele>
        <time>2012-08-15T06:53:24Z</time>
      </trkpt>
      <trkpt lat="44.6105" lon="0.84514">
        <ele>136</ele>
        <time>2012-08-15T06:53:29Z</time>
      </trkpt>
      <trkpt lat="44.61043" lon="0.84553">
        <ele>139</ele>
        <time>2012-08-15T06:53:35Z</time>
      </trkpt>
      <trkpt lat="44.61039" lon="0.84588">
        <ele>139</ele>
        <time>2012-08-15T06:53:40Z</time>
      </trkpt>
      <trkpt lat="44.61034" lon="0.84611">
        <ele>141</ele>
        <time>2012-08-15T06:53:46Z</time>
      </trkpt>
      <trkpt lat="44.6103" lon="0.84637">
        <ele>141</ele>
        <time>2012-08-15T06:53:51Z</time>
      </trkpt>
      <trkpt lat="44.61024" lon="0.84661">
        <ele>141</ele>
        <time>2012-08-15T06:53:56Z</time>
      </trkpt>
      <trkpt lat="44.61013" lon="0.84678">
        <ele>142</ele>
        <time>2012-08-15T06:54:01Z</time>
      </trkpt>
      <trkpt lat="44.61001" lon="0.84693">
        <ele>144</ele>
        <time>2012-08-15T06:54:06Z</time>
      </trkpt>
      <trkpt lat="44.60984" lon="0.84692">
        <ele>145</ele>
        <time>2012-08-15T06:54:11Z</time>
      </trkpt>
      <trkpt lat="44.60963" lon="0.84686">
        <ele>145</ele>
        <time>2012-08-15T06:54:16Z</time>
      </trkpt>
      <trkpt lat="44.60946" lon="0.84676">
        <ele>145</ele>
        <time>2012-08-15T06:54:21Z</time>
      </trkpt>
      <trkpt lat="44.60929" lon="0.84692">
        <ele>145</ele>
        <time>2012-08-15T06:54:27Z</time>
      </trkpt>
      <trkpt lat="44.60907" lon="0.8471">
        <ele>145</ele>
        <time>2012-08-15T06:54:32Z</time>
      </trkpt>
      <trkpt lat="44.60891" lon="0.84718">
        <ele>145</ele>
        <time>2012-08-15T06:54:37Z</time>
      </trkpt>
      <trkpt lat="44.60882" lon="0.84691">
        <ele>145</ele>
        <time>2012-08-15T06:54:42Z</time>
      </trkpt>
      <trkpt lat="44.60876" lon="0.84659">
        <ele>146</ele>
        <time>2012-08-15T06:54:48Z</time>
      </trkpt>
      <trkpt lat="44.60855" lon="0.84648">
        <ele>146</ele>
        <time>2012-08-15T06:54:53Z</time>
      </trkpt>
      <trkpt lat="44.60833" lon="0.84631">
        <ele>146</ele>
        <time>2012-08-15T06:54:58Z</time>
      </trkpt>
      <trkpt lat="44.60806" lon="0.84596">
        <ele>146</ele>
        <time>2012-08-15T06:55:03Z</time>
      </trkpt>
      <trkpt lat="44.6079" lon="0.8456">
        <ele>148</ele>
        <time>2012-08-15T06:55:08Z</time>
      </trkpt>
      <trkpt lat="44.60772" lon="0.84531">
        <ele>150</ele>
        <time>2012-08-15T06:55:14Z</time>
      </trkpt>
      <trkpt lat="44.60749" lon="0.84503">
        <ele>151</ele>
        <time>2012-08-15T06:55:19Z</time>
      </trkpt>
      <trkpt lat="44.60727" lon="0.8448">
        <ele>152</ele>
        <time>2012-08-15T06:55:25Z</time>
      </trkpt>
      <trkpt lat="44.60701" lon="0.84455">
        <ele>152</ele>
        <time>2012-08-15T06:55:30Z</time>
      </trkpt>
      <trkpt lat="44.60684" lon="0.8443">
        <ele>152</ele>
        <time>2012-08-15T06:55:35Z</time>
      </trkpt>
      <trkpt lat="44.60663" lon="0.84402">
        <ele>152</ele>
        <time>2012-08-15T06:55:41Z</time>
      </trkpt>
      <trkpt lat="44.60635" lon="0.84364">
        <ele>152</ele>
        <time>2012-08-15T06:55:47Z</time>
      </trkpt>
      <trkpt lat="44.60636" lon="0.84325">
        <ele>150</ele>
        <time>2012-08-15T06:55:52Z</time>
      </trkpt>
      <trkpt lat="44.6062" lon="0.84279">
        <ele>146</ele>
        <time>2012-08-15T06:55:58Z</time>
      </trkpt>
      <trkpt lat="44.60601" lon="0.84225">
        <ele>143</ele>
        <time>2012-08-15T06:56:03Z</time>
      </trkpt>
      <trkpt lat="44.6058" lon="0.84207">
        <ele>141</ele>
        <time>2012-08-15T06:56:08Z</time>
      </trkpt>
      <trkpt lat="44.60586" lon="0.84183">
        <ele>141</ele>
        <time>2012-08-15T06:56:14Z</time>
      </trkpt>
      <trkpt lat="44.60593" lon="0.84158">
        <ele>140</ele>
        <time>2012-08-15T06:56:19Z</time>
      </trkpt>
      <trkpt lat="44.60593" lon="0.84141">
        <ele>138</ele>
        <time>2012-08-15T06:56:24Z</time>
      </trkpt>
      <trkpt lat="44.6058" lon="0.8413">
        <ele>138</ele>
        <time>2012-08-15T06:56:30Z</time>
      </trkpt>
      <trkpt lat="44.60556" lon="0.84115">
        <ele>138</ele>
        <time>2012-08-15T06:56:35Z</time>
      </trkpt>
      <trkpt lat="44.60537" lon="0.84105">
        <ele>138</ele>
        <time>2012-08-15T06:56:40Z</time>
      </trkpt>
      <trkpt lat="44.60517" lon="0.84093">
        <ele>138</ele>
        <time>2012-08-15T06:56:45Z</time>
      </trkpt>
      <trkpt lat="44.60502" lon="0.84073">
        <ele>138</ele>
        <time>2012-08-15T06:56:50Z</time>
      </trkpt>
      <trkpt lat="44.60492" lon="0.8405">
        <ele>140</ele>
        <time>2012-08-15T06:56:56Z</time>
      </trkpt>
      <trkpt lat="44.60468" lon="0.84052">
        <ele>140</ele>
        <time>2012-08-15T06:57:02Z</time>
      </trkpt>
      <trkpt lat="44.60432" lon="0.84072">
        <ele>140</ele>
        <time>2012-08-15T06:57:07Z</time>
      </trkpt>
      <trkpt lat="44.60399" lon="0.84085">
        <ele>140</ele>
        <time>2012-08-15T06:57:12Z</time>
      </trkpt>
      <trkpt lat="44.60362" lon="0.84084">
        <ele>139</ele>
        <time>2012-08-15T06:57:17Z</time>
      </trkpt>
      <trkpt lat="44.60329" lon="0.84091">
        <ele>138</ele>
        <time>2012-08-15T06:57:22Z</time>
      </trkpt>
      <trkpt lat="44.603" lon="0.84102">
        <ele>138</ele>
        <time>2012-08-15T06:57:27Z</time>
      </trkpt>
      <trkpt lat="44.6027" lon="0.84102">
        <ele>137</ele>
        <time>2012-08-15T06:57:32Z</time>
      </trkpt>
      <trkpt lat="44.60236" lon="0.84091">
        <ele>133</ele>
        <time>2012-08-15T06:57:37Z</time>
      </trkpt>
      <trkpt lat="44.60207" lon="0.84073">
        <ele>130</ele>
        <time>2012-08-15T06:57:42Z</time>
      </trkpt>
      <trkpt lat="44.60188" lon="0.84096">
        <ele>126</ele>
        <time>2012-08-15T06:57:48Z</time>
      </trkpt>
      <trkpt lat="44.6017" lon="0.84108">
        <ele>120</ele>
        <time>2012-08-15T06:57:53Z</time>
      </trkpt>
      <trkpt lat="44.60155" lon="0.84141">
        <ele>116</ele>
        <time>2012-08-15T06:57:58Z</time>
      </trkpt>
      <trkpt lat="44.60139" lon="0.84153">
        <ele>113</ele>
        <time>2012-08-15T06:58:04Z</time>
      </trkpt>
      <trkpt lat="44.60132" lon="0.84194">
        <ele>111</ele>
        <time>2012-08-15T06:58:09Z</time>
      </trkpt>
      <trkpt lat="44.60125" lon="0.8423">
        <ele>111</ele>
        <time>2012-08-15T06:58:14Z</time>
      </trkpt>
      <trkpt lat="44.60113" lon="0.84263">
        <ele>111</ele>
        <time>2012-08-15T06:58:19Z</time>
      </trkpt>
      <trkpt lat="44.60096" lon="0.84291">
        <ele>111</ele>
        <time>2012-08-15T06:58:24Z</time>
      </trkpt>
      <trkpt lat="44.60077" lon="0.84294">
        <ele>111</ele>
        <time>2012-08-15T06:58:29Z</time>
      </trkpt>
      <trkpt lat="44.60056" lon="0.84267">
        <ele>111</ele>
        <time>2012-08-15T06:58:34Z</time>
      </trkpt>
      <trkpt lat="44.60036" lon="0.84257">
        <ele>114</ele>
        <time>2012-08-15T06:58:39Z</time>
      </trkpt>
      <trkpt lat="44.6002" lon="0.84253">
        <ele>118</ele>
        <time>2012-08-15T06:58:44Z</time>
      </trkpt>
      <trkpt lat="44.60005" lon="0.84251">
        <ele>123</ele>
        <time>2012-08-15T06:58:49Z</time>
      </trkpt>
      <trkpt lat="44.5999" lon="0.84249">
        <ele>123</ele>
        <time>2012-08-15T06:58:54Z</time>
      </trkpt>
      <trkpt lat="44.59974" lon="0.84244">
        <ele>124</ele>
        <time>2012-08-15T06:58:59Z</time>
      </trkpt>
      <trkpt lat="44.59959" lon="0.84227">
        <ele>124</ele>
        <time>2012-08-15T06:59:04Z</time>
      </trkpt>
      <trkpt lat="44.59947" lon="0.84205">
        <ele>126</ele>
        <time>2012-08-15T06:59:09Z</time>
      </trkpt>
      <trkpt lat="44.59936" lon="0.84185">
        <ele>129</ele>
        <time>2012-08-15T06:59:14Z</time>
      </trkpt>
      <trkpt lat="44.59926" lon="0.84165">
        <ele>132</ele>
        <time>2012-08-15T06:59:19Z</time>
      </trkpt>
      <trkpt lat="44.59916" lon="0.84145">
        <ele>137</ele>
        <time>2012-08-15T06:59:24Z</time>
      </trkpt>
      <trkpt lat="44.59907" lon="0.84126">
        <ele>142</ele>
        <time>2012-08-15T06:59:30Z</time>
      </trkpt>
      <trkpt lat="44.59898" lon="0.84101">
        <ele>143</ele>
        <time>2012-08-15T06:59:35Z</time>
      </trkpt>
      <trkpt lat="44.59888" lon="0.84079">
        <ele>143</ele>
        <time>2012-08-15T06:59:40Z</time>
      </trkpt>
      <trkpt lat="44.59879" lon="0.84058">
        <ele>144</ele>
        <time>2012-08-15T06:59:45Z</time>
      </trkpt>
      <trkpt lat="44.59867" lon="0.84036">
        <ele>144</ele>
        <time>2012-08-15T06:59:51Z</time>
      </trkpt>
      <trkpt lat="44.59851" lon="0.84008">
        <ele>144</ele>
        <time>2012-08-15T06:59:56Z</time>
      </trkpt>
      <trkpt lat="44.59836" lon="0.84021">
        <ele>144</ele>
        <time>2012-08-15T07:00:01Z</time>
      </trkpt>
      <trkpt lat="44.59817" lon="0.84048">
        <ele>142</ele>
        <time>2012-08-15T07:00:06Z</time>
      </trkpt>
      <trkpt lat="44.59795" lon="0.84077">
        <ele>140</ele>
        <time>2012-08-15T07:00:11Z</time>
      </trkpt>
      <trkpt lat="44.59777" lon="0.84101">
        <ele>138</ele>
        <time>2012-08-15T07:00:16Z</time>
      </trkpt>
      <trkpt lat="44.59759" lon="0.84124">
        <ele>135</ele>
        <time>2012-08-15T07:00:21Z</time>
      </trkpt>
      <trkpt lat="44.59745" lon="0.84151">
        <ele>133</ele>
        <time>2012-08-15T07:00:26Z</time>
      </trkpt>
      <trkpt lat="44.59728" lon="0.84176">
        <ele>132</ele>
        <time>2012-08-15T07:00:31Z</time>
      </trkpt>
      <trkpt lat="44.5971" lon="0.84203">
        <ele>132</ele>
        <time>2012-08-15T07:00:36Z</time>
      </trkpt>
      <trkpt lat="44.5969" lon="0.84224">
        <ele>132</ele>
        <time>2012-08-15T07:00:41Z</time>
      </trkpt>
      <trkpt lat="44.59676" lon="0.8425">
        <ele>132</ele>
        <time>2012-08-15T07:00:46Z</time>
      </trkpt>
      <trkpt lat="44.59658" lon="0.84269">
        <ele>134</ele>
        <time>2012-08-15T07:00:51Z</time>
      </trkpt>
      <trkpt lat="44.59645" lon="0.84292">
        <ele>135</ele>
        <time>2012-08-15T07:00:56Z</time>
      </trkpt>
      <trkpt lat="44.59633" lon="0.84313">
        <ele>136</ele>
        <time>2012-08-15T07:01:01Z</time>
      </trkpt>
      <trkpt lat="44.59616" lon="0.8433">
        <ele>139</ele>
        <time>2012-08-15T07:01:06Z</time>
      </trkpt>
      <trkpt lat="44.59594" lon="0.84349">
        <ele>139</ele>
        <time>2012-08-15T07:01:12Z</time>
      </trkpt>
      <trkpt lat="44.59567" lon="0.84373">
        <ele>139</ele>
        <time>2012-08-15T07:01:17Z</time>
      </trkpt>
      <trkpt lat="44.59544" lon="0.84396">
        <ele>139</ele>
        <time>2012-08-15T07:01:22Z</time>
      </trkpt>
      <trkpt lat="44.5952" lon="0.84421">
        <ele>139</ele>
        <time>2012-08-15T07:01:27Z</time>
      </trkpt>
      <trkpt lat="44.59493" lon="0.84447">
        <ele>139</ele>
        <time>2012-08-15T07:01:32Z</time>
      </trkpt>
      <trkpt lat="44.59468" lon="0.84474">
        <ele>139</ele>
        <time>2012-08-15T07:01:37Z</time>
      </trkpt>
      <trkpt lat="44.59446" lon="0.84503">
        <ele>139</ele>
        <time>2012-08-15T07:01:42Z</time>
      </trkpt>
      <trkpt lat="44.59422" lon="0.84528">
        <ele>140</ele>
        <time>2012-08-15T07:01:47Z</time>
      </trkpt>
      <trkpt lat="44.59398" lon="0.84553">
        <ele>141</ele>
        <time>2012-08-15T07:01:52Z</time>
      </trkpt>
      <trkpt lat="44.59395" lon="0.84588">
        <ele>141</ele>
        <time>2012-08-15T07:01:57Z</time>
      </trkpt>
      <trkpt lat="44.59403" lon="0.84622">
        <ele>144</ele>
        <time>2012-08-15T07:02:02Z</time>
      </trkpt>
      <trkpt lat="44.59413" lon="0.84655">
        <ele>147</ele>
        <time>2012-08-15T07:02:07Z</time>
      </trkpt>
      <trkpt lat="44.59425" lon="0.84692">
        <ele>148</ele>
        <time>2012-08-15T07:02:12Z</time>
      </trkpt>
      <trkpt lat="44.59435" lon="0.84727">
        <ele>148</ele>
        <time>2012-08-15T07:02:18Z</time>
      </trkpt>
      <trkpt lat="44.59443" lon="0.84758">
        <ele>148</ele>
        <time>2012-08-15T07:02:23Z</time>
      </trkpt>
      <trkpt lat="44.59435" lon="0.8479">
        <ele>148</ele>
        <time>2012-08-15T07:02:28Z</time>
      </trkpt>
      <trkpt lat="44.59415" lon="0.84815">
        <ele>148</ele>
        <time>2012-08-15T07:02:33Z</time>
      </trkpt>
      <trkpt lat="44.59402" lon="0.84841">
        <ele>148</ele>
        <time>2012-08-15T07:02:38Z</time>
      </trkpt>
      <trkpt lat="44.59402" lon="0.84877">
        <ele>148</ele>
        <time>2012-08-15T07:02:43Z</time>
      </trkpt>
      <trkpt lat="44.59382" lon="0.84918">
        <ele>148</ele>
        <time>2012-08-15T07:02:48Z</time>
      </trkpt>
      <trkpt lat="44.59358" lon="0.84943">
        <ele>148</ele>
        <time>2012-08-15T07:02:54Z</time>
      </trkpt>
      <trkpt lat="44.59333" lon="0.8497">
        <ele>148</ele>
        <time>2012-08-15T07:02:59Z</time>
      </trkpt>
      <trkpt lat="44.59318" lon="0.8501">
        <ele>148</ele>
        <time>2012-08-15T07:03:04Z</time>
      </trkpt>
      <trkpt lat="44.59284" lon="0.85048">
        <ele>148</ele>
        <time>2012-08-15T07:03:09Z</time>
      </trkpt>
      <trkpt lat="44.5926" lon="0.85063">
        <ele>148</ele>
        <time>2012-08-15T07:03:15Z</time>
      </trkpt>
      <trkpt lat="44.59239" lon="0.85071">
        <ele>148</ele>
        <time>2012-08-15T07:03:20Z</time>
      </trkpt>
      <trkpt lat="44.59209" lon="0.85092">
        <ele>148</ele>
        <time>2012-08-15T07:03:25Z</time>
      </trkpt>
      <trkpt lat="44.59182" lon="0.85116">
        <ele>148</ele>
        <time>2012-08-15T07:03:30Z</time>
      </trkpt>
      <trkpt lat="44.59153" lon="0.85139">
        <ele>148</ele>
        <time>2012-08-15T07:03:35Z</time>
      </trkpt>
      <trkpt lat="44.59122" lon="0.85156">
        <ele>149</ele>
        <time>2012-08-15T07:03:40Z</time>
      </trkpt>
      <trkpt lat="44.59091" lon="0.85162">
        <ele>150</ele>
        <time>2012-08-15T07:03:46Z</time>
      </trkpt>
      <trkpt lat="44.59058" lon="0.85171">
        <ele>150</ele>
        <time>2012-08-15T07:03:51Z</time>
      </trkpt>
      <trkpt lat="44.59025" lon="0.85186">
        <ele>150</ele>
        <time>2012-08-15T07:03:56Z</time>
      </trkpt>
      <trkpt lat="44.58992" lon="0.85203">
        <ele>150</ele>
        <time>2012-08-15T07:04:01Z</time>
      </trkpt>
      <trkpt lat="44.5897" lon="0.85207">
        <ele>150</ele>
        <time>2012-08-15T07:04:07Z</time>
      </trkpt>
      <trkpt lat="44.58949" lon="0.85208">
        <ele>150</ele>
        <time>2012-08-15T07:04:12Z</time>
      </trkpt>
      <trkpt lat="44.58932" lon="0.85207">
        <ele>150</ele>
        <time>2012-08-15T07:04:17Z</time>
      </trkpt>
      <trkpt lat="44.58915" lon="0.85197">
        <ele>154</ele>
        <time>2012-08-15T07:04:23Z</time>
      </trkpt>
      <trkpt lat="44.58901" lon="0.85177">
        <ele>159</ele>
        <time>2012-08-15T07:04:28Z</time>
      </trkpt>
      <trkpt lat="44.58886" lon="0.8517">
        <ele>161</ele>
        <time>2012-08-15T07:04:33Z</time>
      </trkpt>
      <trkpt lat="44.5887" lon="0.85171">
        <ele>163</ele>
        <time>2012-08-15T07:04:39Z</time>
      </trkpt>
      <trkpt lat="44.58858" lon="0.8516">
        <ele>166</ele>
        <time>2012-08-15T07:04:44Z</time>
      </trkpt>
      <trkpt lat="44.58842" lon="0.85129">
        <ele>168</ele>
        <time>2012-08-15T07:04:49Z</time>
      </trkpt>
      <trkpt lat="44.58819" lon="0.85094">
        <ele>171</ele>
        <time>2012-08-15T07:04:54Z</time>
      </trkpt>
      <trkpt lat="44.58786" lon="0.85079">
        <ele>172</ele>
        <time>2012-08-15T07:04:59Z</time>
      </trkpt>
      <trkpt lat="44.58759" lon="0.85039">
        <ele>172</ele>
        <time>2012-08-15T07:05:04Z</time>
      </trkpt>
      <trkpt lat="44.58747" lon="0.85005">
        <ele>171</ele>
        <time>2012-08-15T07:05:09Z</time>
      </trkpt>
      <trkpt lat="44.58757" lon="0.84983">
        <ele>169</ele>
        <time>2012-08-15T07:05:15Z</time>
      </trkpt>
      <trkpt lat="44.58768" lon="0.84947">
        <ele>167</ele>
        <time>2012-08-15T07:05:20Z</time>
      </trkpt>
      <trkpt lat="44.58788" lon="0.84911">
        <ele>162</ele>
        <time>2012-08-15T07:05:25Z</time>
      </trkpt>
      <trkpt lat="44.58812" lon="0.8487">
        <ele>159</ele>
        <time>2012-08-15T07:05:30Z</time>
      </trkpt>
      <trkpt lat="44.58832" lon="0.84815">
        <ele>158</ele>
        <time>2012-08-15T07:05:35Z</time>
      </trkpt>
      <trkpt lat="44.58858" lon="0.84747">
        <ele>155</ele>
        <time>2012-08-15T07:05:40Z</time>
      </trkpt>
      <trkpt lat="44.58888" lon="0.84702">
        <ele>153</ele>
        <time>2012-08-15T07:05:45Z</time>
      </trkpt>
      <trkpt lat="44.58909" lon="0.84662">
        <ele>150</ele>
        <time>2012-08-15T07:05:51Z</time>
      </trkpt>
      <trkpt lat="44.58915" lon="0.84598">
        <ele>146</ele>
        <time>2012-08-15T07:05:56Z</time>
      </trkpt>
      <trkpt lat="44.5892" lon="0.84545">
        <ele>141</ele>
        <time>2012-08-15T07:06:01Z</time>
      </trkpt>
      <trkpt lat="44.58916" lon="0.84505">
        <ele>140</ele>
        <time>2012-08-15T07:06:06Z</time>
      </trkpt>
      <trkpt lat="44.58908" lon="0.84461">
        <ele>140</ele>
        <time>2012-08-15T07:06:12Z</time>
      </trkpt>
      <trkpt lat="44.58894" lon="0.84407">
        <ele>144</ele>
        <time>2012-08-15T07:06:18Z</time>
      </trkpt>
      <trkpt lat="44.58886" lon="0.84352">
        <ele>145</ele>
        <time>2012-08-15T07:06:23Z</time>
      </trkpt>
      <trkpt lat="44.58873" lon="0.84306">
        <ele>148</ele>
        <time>2012-08-15T07:06:28Z</time>
      </trkpt>
      <trkpt lat="44.58872" lon="0.84262">
        <ele>150</ele>
        <time>2012-08-15T07:06:33Z</time>
      </trkpt>
      <trkpt lat="44.58881" lon="0.84228">
        <ele>150</ele>
        <time>2012-08-15T07:06:39Z</time>
      </trkpt>
      <trkpt lat="44.58893" lon="0.84198">
        <ele>150</ele>
        <time>2012-08-15T07:06:44Z</time>
      </trkpt>
      <trkpt lat="44.58897" lon="0.84153">
        <ele>150</ele>
        <time>2012-08-15T07:06:50Z</time>
      </trkpt>
      <trkpt lat="44.58886" lon="0.84126">
        <ele>150</ele>
        <time>2012-08-15T07:06:55Z</time>
      </trkpt>
      <trkpt lat="44.58871" lon="0.84085">
        <ele>150</ele>
        <time>2012-08-15T07:07:00Z</time>
      </trkpt>
      <trkpt lat="44.58857" lon="0.84041">
        <ele>150</ele>
        <time>2012-08-15T07:07:06Z</time>
      </trkpt>
      <trkpt lat="44.58834" lon="0.83995">
        <ele>150</ele>
        <time>2012-08-15T07:07:11Z</time>
      </trkpt>
      <trkpt lat="44.58821" lon="0.83962">
        <ele>150</ele>
        <time>2012-08-15T07:07:16Z</time>
      </trkpt>
      <trkpt lat="44.58804" lon="0.8393">
        <ele>151</ele>
        <time>2012-08-15T07:07:21Z</time>
      </trkpt>
      <trkpt lat="44.58778" lon="0.83898">
        <ele>151</ele>
        <time>2012-08-15T07:07:27Z</time>
      </trkpt>
      <trkpt lat="44.58744" lon="0.83856">
        <ele>148</ele>
        <time>2012-08-15T07:07:32Z</time>
      </trkpt>
      <trkpt lat="44.58718" lon="0.83841">
        <ele>143</ele>
        <time>2012-08-15T07:07:38Z</time>
      </trkpt>
      <trkpt lat="44.58684" lon="0.8382">
        <ele>139</ele>
        <time>2012-08-15T07:07:43Z</time>
      </trkpt>
      <trkpt lat="44.5865" lon="0.83793">
        <ele>134</ele>
        <time>2012-08-15T07:07:48Z</time>
      </trkpt>
      <trkpt lat="44.58628" lon="0.8376">
        <ele>129</ele>
        <time>2012-08-15T07:07:53Z</time>
      </trkpt>
      <trkpt lat="44.58615" lon="0.8374">
        <ele>125</ele>
        <time>2012-08-15T07:07:58Z</time>
      </trkpt>
      <trkpt lat="44.58625" lon="0.83727">
        <ele>125</ele>
        <time>2012-08-15T07:08:03Z</time>
      </trkpt>
      <trkpt lat="44.58645" lon="0.83711">
        <ele>124</ele>
        <time>2012-08-15T07:08:08Z</time>
      </trkpt>
      <trkpt lat="44.58669" lon="0.83694">
        <ele>120</ele>
        <time>2012-08-15T07:08:13Z</time>
      </trkpt>
      <trkpt lat="44.58697" lon="0.83677">
        <ele>116</ele>
        <time>2012-08-15T07:08:18Z</time>
      </trkpt>
      <trkpt lat="44.58728" lon="0.83661">
        <ele>112</ele>
        <time>2012-08-15T07:08:23Z</time>
      </trkpt>
      <trkpt lat="44.58761" lon="0.83649">
        <ele>107</ele>
        <time>2012-08-15T07:08:28Z</time>
      </trkpt>
      <trkpt lat="44.58794" lon="0.83635">
        <ele>105</ele>
        <time>2012-08-15T07:08:34Z</time>
      </trkpt>
      <trkpt lat="44.58809" lon="0.83601">
        <ele>104</ele>
        <time>2012-08-15T07:08:39Z</time>
      </trkpt>
      <trkpt lat="44.58801" lon="0.83552">
        <ele>104</ele>
        <time>2012-08-15T07:08:44Z</time>
      </trkpt>
      <trkpt lat="44.588" lon="0.83512">
        <ele>108</ele>
        <time>2012-08-15T07:08:50Z</time>
      </trkpt>
      <trkpt lat="44.58807" lon="0.83481">
        <ele>111</ele>
        <time>2012-08-15T07:08:55Z</time>
      </trkpt>
      <trkpt lat="44.58789" lon="0.83452">
        <ele>117</ele>
        <time>2012-08-15T07:09:00Z</time>
      </trkpt>
      <trkpt lat="44.58773" lon="0.83433">
        <ele>120</ele>
        <time>2012-08-15T07:09:05Z</time>
      </trkpt>
      <trkpt lat="44.58756" lon="0.83416">
        <ele>122</ele>
        <time>2012-08-15T07:09:10Z</time>
      </trkpt>
      <trkpt lat="44.58744" lon="0.83403">
        <ele>124</ele>
        <time>2012-08-15T07:09:15Z</time>
      </trkpt>
      <trkpt lat="44.58731" lon="0.8339">
        <ele>125</ele>
        <time>2012-08-15T07:09:20Z</time>
      </trkpt>
      <trkpt lat="44.58721" lon="0.83377">
        <ele>128</ele>
        <time>2012-08-15T07:09:26Z</time>
      </trkpt>
      <trkpt lat="44.58718" lon="0.83354">
        <ele>128</ele>
        <time>2012-08-15T07:09:31Z</time>
      </trkpt>
      <trkpt lat="44.58707" lon="0.83332">
        <ele>128</ele>
        <time>2012-08-15T07:09:37Z</time>
      </trkpt>
      <trkpt lat="44.58692" lon="0.83315">
        <ele>128</ele>
        <time>2012-08-15T07:09:42Z</time>
      </trkpt>
      <trkpt lat="44.58673" lon="0.83296">
        <ele>128</ele>
        <time>2012-08-15T07:09:47Z</time>
      </trkpt>
      <trkpt lat="44.58684" lon="0.83262">
        <ele>128</ele>
        <time>2012-08-15T07:09:52Z</time>
      </trkpt>
      <trkpt lat="44.58701" lon="0.83237">
        <ele>129</ele>
        <time>2012-08-15T07:09:57Z</time>
      </trkpt>
      <trkpt lat="44.58723" lon="0.83213">
        <ele>129</ele>
        <time>2012-08-15T07:10:03Z</time>
      </trkpt>
      <trkpt lat="44.58753" lon="0.83183">
        <ele>129</ele>
        <time>2012-08-15T07:10:09Z</time>
      </trkpt>
      <trkpt lat="44.58783" lon="0.83158">
        <ele>129</ele>
        <time>2012-08-15T07:10:14Z</time>
      </trkpt>
      <trkpt lat="44.58817" lon="0.83128">
        <ele>129</ele>
        <time>2012-08-15T07:10:19Z</time>
      </trkpt>
      <trkpt lat="44.58854" lon="0.83095">
        <ele>126</ele>
        <time>2012-08-15T07:10:24Z</time>
      </trkpt>
      <trkpt lat="44.58881" lon="0.83054">
        <ele>121</ele>
        <time>2012-08-15T07:10:29Z</time>
      </trkpt>
      <trkpt lat="44.58896" lon="0.83004">
        <ele>117</ele>
        <time>2012-08-15T07:10:34Z</time>
      </trkpt>
      <trkpt lat="44.58941" lon="0.82953">
        <ele>113</ele>
        <time>2012-08-15T07:10:40Z</time>
      </trkpt>
      <trkpt lat="44.58988" lon="0.8293">
        <ele>111</ele>
        <time>2012-08-15T07:10:46Z</time>
      </trkpt>
      <trkpt lat="44.59015" lon="0.82906">
        <ele>111</ele>
        <time>2012-08-15T07:10:51Z</time>
      </trkpt>
      <trkpt lat="44.59026" lon="0.82867">
        <ele>111</ele>
        <time>2012-08-15T07:10:56Z</time>
      </trkpt>
      <trkpt lat="44.59037" lon="0.82818">
        <ele>110</ele>
        <time>2012-08-15T07:11:01Z</time>
      </trkpt>
      <trkpt lat="44.59035" lon="0.82787">
        <ele>110</ele>
        <time>2012-08-15T07:11:06Z</time>
      </trkpt>
      <trkpt lat="44.59016" lon="0.82782">
        <ele>110</ele>
        <time>2012-08-15T07:11:11Z</time>
      </trkpt>
      <trkpt lat="44.58996" lon="0.82774">
        <ele>110</ele>
        <time>2012-08-15T07:11:16Z</time>
      </trkpt>
      <trkpt lat="44.58988" lon="0.8276">
        <ele>110</ele>
        <time>2012-08-15T07:11:22Z</time>
      </trkpt>
      <trkpt lat="44.58981" lon="0.82741">
        <ele>115</ele>
        <time>2012-08-15T07:11:27Z</time>
      </trkpt>
      <trkpt lat="44.58976" lon="0.82722">
        <ele>120</ele>
        <time>2012-08-15T07:11:32Z</time>
      </trkpt>
      <trkpt lat="44.58977" lon="0.82689">
        <ele>120</ele>
        <time>2012-08-15T07:11:37Z</time>
      </trkpt>
      <trkpt lat="44.58983" lon="0.82645">
        <ele>120</ele>
        <time>2012-08-15T07:11:44Z</time>
      </trkpt>
      <trkpt lat="44.58959" lon="0.82607">
        <ele>119</ele>
        <time>2012-08-15T07:11:50Z</time>
      </trkpt>
      <trkpt lat="44.58934" lon="0.82595">
        <ele>119</ele>
        <time>2012-08-15T07:11:55Z</time>
      </trkpt>
      <trkpt lat="44.58909" lon="0.82577">
        <ele>119</ele>
        <time>2012-08-15T07:12:01Z</time>
      </trkpt>
      <trkpt lat="44.58914" lon="0.82534">
        <ele>119</ele>
        <time>2012-08-15T07:12:06Z</time>
      </trkpt>
      <trkpt lat="44.58923" lon="0.82499">
        <ele>119</ele>
        <time>2012-08-15T07:12:11Z</time>
      </trkpt>
      <trkpt lat="44.58932" lon="0.82465">
        <ele>119</ele>
        <time>2012-08-15T07:12:16Z</time>
      </trkpt>
      <trkpt lat="44.58933" lon="0.82428">
        <ele>119</ele>
        <time>2012-08-15T07:12:21Z</time>
      </trkpt>
      <trkpt lat="44.5891" lon="0.82414">
        <ele>118</ele>
        <time>2012-08-15T07:12:27Z</time>
      </trkpt>
      <trkpt lat="44.58887" lon="0.82403">
        <ele>118</ele>
        <time>2012-08-15T07:12:32Z</time>
      </trkpt>
      <trkpt lat="44.58865" lon="0.82393">
        <ele>118</ele>
        <time>2012-08-15T07:12:38Z</time>
      </trkpt>
      <trkpt lat="44.58847" lon="0.82384">
        <ele>118</ele>
        <time>2012-08-15T07:12:43Z</time>
      </trkpt>
      <trkpt lat="44.58833" lon="0.82379">
        <ele>118</ele>
        <time>2012-08-15T07:12:48Z</time>
      </trkpt>
      <trkpt lat="44.58822" lon="0.82378">
        <ele>118</ele>
        <time>2012-08-15T07:12:53Z</time>
      </trkpt>
      <trkpt lat="44.58814" lon="0.82378">
        <ele>121</ele>
        <time>2012-08-15T07:12:58Z</time>
      </trkpt>
      <trkpt lat="44.58805" lon="0.8238">
        <ele>123</ele>
        <time>2012-08-15T07:13:03Z</time>
      </trkpt>
      <trkpt lat="44.58795" lon="0.82383">
        <ele>125</ele>
        <time>2012-08-15T07:13:08Z</time>
      </trkpt>
      <trkpt lat="44.58785" lon="0.82383">
        <ele>128</ele>
        <time>2012-08-15T07:13:13Z</time>
      </trkpt>
      <trkpt lat="44.58773" lon="0.82383">
        <ele>130</ele>
        <time>2012-08-15T07:13:19Z</time>
      </trkpt>
      <trkpt lat="44.58762" lon="0.8238">
        <ele>133</ele>
        <time>2012-08-15T07:13:25Z</time>
      </trkpt>
      <trkpt lat="44.58749" lon="0.82377">
        <ele>134</ele>
        <time>2012-08-15T07:13:30Z</time>
      </trkpt>
      <trkpt lat="44.58739" lon="0.82374">
        <ele>135</ele>
        <time>2012-08-15T07:13:35Z</time>
      </trkpt>
      <trkpt lat="44.58723" lon="0.82379">
        <ele>135</ele>
        <time>2012-08-15T07:13:41Z</time>
      </trkpt>
      <trkpt lat="44.58704" lon="0.82397">
        <ele>135</ele>
        <time>2012-08-15T07:13:46Z</time>
      </trkpt>
      <trkpt lat="44.58686" lon="0.82416">
        <ele>135</ele>
        <time>2012-08-15T07:13:52Z</time>
      </trkpt>
      <trkpt lat="44.58669" lon="0.8243">
        <ele>132</ele>
        <time>2012-08-15T07:13:58Z</time>
      </trkpt>
      <trkpt lat="44.58647" lon="0.82444">
        <ele>131</ele>
        <time>2012-08-15T07:14:04Z</time>
      </trkpt>
      <trkpt lat="44.58624" lon="0.82457">
        <ele>131</ele>
        <time>2012-08-15T07:14:09Z</time>
      </trkpt>
      <trkpt lat="44.58605" lon="0.82468">
        <ele>131</ele>
        <time>2012-08-15T07:14:14Z</time>
      </trkpt>
      <trkpt lat="44.58585" lon="0.82483">
        <ele>131</ele>
        <time>2012-08-15T07:14:20Z</time>
      </trkpt>
      <trkpt lat="44.58565" lon="0.82498">
        <ele>131</ele>
        <time>2012-08-15T07:14:25Z</time>
      </trkpt>
      <trkpt lat="44.58545" lon="0.82516">
        <ele>131</ele>
        <time>2012-08-15T07:14:30Z</time>
      </trkpt>
      <trkpt lat="44.5852" lon="0.82541">
        <ele>132</ele>
        <time>2012-08-15T07:14:35Z</time>
      </trkpt>
      <trkpt lat="44.58499" lon="0.82561">
        <ele>132</ele>
        <time>2012-08-15T07:14:40Z</time>
      </trkpt>
      <trkpt lat="44.58475" lon="0.82585">
        <ele>132</ele>
        <time>2012-08-15T07:14:46Z</time>
      </trkpt>
      <trkpt lat="44.58455" lon="0.82605">
        <ele>132</ele>
        <time>2012-08-15T07:14:52Z</time>
      </trkpt>
      <trkpt lat="44.58431" lon="0.82628">
        <ele>132</ele>
        <time>2012-08-15T07:14:57Z</time>
      </trkpt>
      <trkpt lat="44.58412" lon="0.82645">
        <ele>132</ele>
        <time>2012-08-15T07:15:02Z</time>
      </trkpt>
      <trkpt lat="44.5839" lon="0.8266">
        <ele>133</ele>
        <time>2012-08-15T07:15:08Z</time>
      </trkpt>
      <trkpt lat="44.5836" lon="0.82679">
        <ele>133</ele>
        <time>2012-08-15T07:15:13Z</time>
      </trkpt>
      <trkpt lat="44.58336" lon="0.82694">
        <ele>133</ele>
        <time>2012-08-15T07:15:19Z</time>
      </trkpt>
      <trkpt lat="44.58305" lon="0.82704">
        <ele>133</ele>
        <time>2012-08-15T07:15:24Z</time>
      </trkpt>
      <trkpt lat="44.5828" lon="0.82711">
        <ele>133</ele>
        <time>2012-08-15T07:15:29Z</time>
      </trkpt>
      <trkpt lat="44.58255" lon="0.82722">
        <ele>133</ele>
        <time>2012-08-15T07:15:34Z</time>
      </trkpt>
      <trkpt lat="44.58231" lon="0.82736">
        <ele>134</ele>
        <time>2012-08-15T07:15:39Z</time>
      </trkpt>
      <trkpt lat="44.58207" lon="0.82751">
        <ele>134</ele>
        <time>2012-08-15T07:15:44Z</time>
      </trkpt>
      <trkpt lat="44.58183" lon="0.82766">
        <ele>134</ele>
        <time>2012-08-15T07:15:49Z</time>
      </trkpt>
      <trkpt lat="44.5816" lon="0.8278">
        <ele>135</ele>
        <time>2012-08-15T07:15:55Z</time>
      </trkpt>
      <trkpt lat="44.58135" lon="0.82798">
        <ele>136</ele>
        <time>2012-08-15T07:16:00Z</time>
      </trkpt>
      <trkpt lat="44.5813" lon="0.8282">
        <ele>136</ele>
        <time>2012-08-15T07:16:06Z</time>
      </trkpt>
      <trkpt lat="44.58144" lon="0.82855">
        <ele>136</ele>
        <time>2012-08-15T07:16:12Z</time>
      </trkpt>
      <trkpt lat="44.58155" lon="0.82882">
        <ele>136</ele>
        <time>2012-08-15T07:16:17Z</time>
      </trkpt>
      <trkpt lat="44.58157" lon="0.82889">
        <ele>136</ele>
        <time>2012-08-15T07:16:30Z</time>
      </trkpt>
      <trkpt lat="44.58156" lon="0.82888">
        <ele>138</ele>
        <time>2012-08-15T07:16:51Z</time>
      </trkpt>
    </trkseg>
  </trk>
</gpx>